<?xml version="1.0" encoding="utf-8"?>
<gpx xmlns:xsi="http://www.w3.org/2001/XMLSchema-instance" xmlns:xsd="http://www.w3.org/2001/XMLSchema" version="1.1" creator="Shapelink.com" xmlns="http://www.topografix.com/GPX/1/1" xmlns:gpxtpx="http://www.garmin.com/xmlschemas/TrackPointExtension/v1">
  <metadata>
    <name>Gehen 8.59 km, 2011-05-21</name>
    <desc></desc>
    <author><name>Jessica Ternander</name></author> 
    <time>2011-05-21T08:36:58Z</time>
  </metadata>
  <trk>
    <name>Gehen 8.59 km, 2011-05-21</name>
    <trkseg>
      <trkpt lat="59.2993298" lon="18.5073445">
        <ele>31.8607</ele>
        <time>2011-05-21T08:36:58Z</time>
      </trkpt>
      <trkpt lat="59.2993102" lon="18.5071625">
        <ele>33.3029</ele>
        <time>2011-05-21T08:37:02Z</time>
      </trkpt>
      <trkpt lat="59.2993008" lon="18.5070555">
        <ele>30.4188</ele>
        <time>2011-05-21T08:37:06Z</time>
      </trkpt>
      <trkpt lat="59.2993159" lon="18.5069431">
        <ele>28.4962</ele>
        <time>2011-05-21T08:37:10Z</time>
      </trkpt>
      <trkpt lat="59.2993202" lon="18.5068817">
        <ele>28.0155</ele>
        <time>2011-05-21T08:37:12Z</time>
      </trkpt>
      <trkpt lat="59.299326" lon="18.5066773">
        <ele>27.0543</ele>
        <time>2011-05-21T08:37:18Z</time>
      </trkpt>
      <trkpt lat="59.2992974" lon="18.5064528">
        <ele>27.0543</ele>
        <time>2011-05-21T08:37:26Z</time>
      </trkpt>
      <trkpt lat="59.2992686" lon="18.5061971">
        <ele>26.0929</ele>
        <time>2011-05-21T08:37:35Z</time>
      </trkpt>
      <trkpt lat="59.2992417" lon="18.5060272">
        <ele>24.651</ele>
        <time>2011-05-21T08:37:41Z</time>
      </trkpt>
      <trkpt lat="59.2992407" lon="18.5059714">
        <ele>24.651</ele>
        <time>2011-05-21T08:37:43Z</time>
      </trkpt>
      <trkpt lat="59.2992211" lon="18.5057516">
        <ele>24.651</ele>
        <time>2011-05-21T08:37:50Z</time>
      </trkpt>
      <trkpt lat="59.2991873" lon="18.5055093">
        <ele>23.209</ele>
        <time>2011-05-21T08:37:58Z</time>
      </trkpt>
      <trkpt lat="59.2992282" lon="18.5053375">
        <ele>23.6896</ele>
        <time>2011-05-21T08:38:04Z</time>
      </trkpt>
      <trkpt lat="59.2993044" lon="18.5051878">
        <ele>27.5349</ele>
        <time>2011-05-21T08:38:10Z</time>
      </trkpt>
      <trkpt lat="59.299377" lon="18.5051153">
        <ele>28.4962</ele>
        <time>2011-05-21T08:38:15Z</time>
      </trkpt>
      <trkpt lat="59.2994286" lon="18.5050522">
        <ele>28.9769</ele>
        <time>2011-05-21T08:38:19Z</time>
      </trkpt>
      <trkpt lat="59.2995052" lon="18.5049265">
        <ele>30.4188</ele>
        <time>2011-05-21T08:38:25Z</time>
      </trkpt>
      <trkpt lat="59.2995602" lon="18.5047551">
        <ele>32.8223</ele>
        <time>2011-05-21T08:38:32Z</time>
      </trkpt>
      <trkpt lat="59.2995882" lon="18.5046507">
        <ele>34.7449</ele>
        <time>2011-05-21T08:38:36Z</time>
      </trkpt>
      <trkpt lat="59.2996391" lon="18.5044569">
        <ele>37.1481</ele>
        <time>2011-05-21T08:38:43Z</time>
      </trkpt>
      <trkpt lat="59.2996789" lon="18.5042847">
        <ele>37.6287</ele>
        <time>2011-05-21T08:38:49Z</time>
      </trkpt>
      <trkpt lat="59.2997183" lon="18.5041024">
        <ele>39.5513</ele>
        <time>2011-05-21T08:38:55Z</time>
      </trkpt>
      <trkpt lat="59.2997898" lon="18.5038883">
        <ele>40.5128</ele>
        <time>2011-05-21T08:39:03Z</time>
      </trkpt>
      <trkpt lat="59.2998437" lon="18.5037222">
        <ele>40.5128</ele>
        <time>2011-05-21T08:39:09Z</time>
      </trkpt>
      <trkpt lat="59.2998886" lon="18.503562">
        <ele>41.474</ele>
        <time>2011-05-21T08:39:15Z</time>
      </trkpt>
      <trkpt lat="59.2999182" lon="18.5034307">
        <ele>40.0321</ele>
        <time>2011-05-21T08:39:20Z</time>
      </trkpt>
      <trkpt lat="59.2999473" lon="18.5032777">
        <ele>40.5128</ele>
        <time>2011-05-21T08:39:25Z</time>
      </trkpt>
      <trkpt lat="59.2999597" lon="18.503246">
        <ele>40.5128</ele>
        <time>2011-05-21T08:39:26Z</time>
      </trkpt>
      <trkpt lat="59.3000198" lon="18.5030964">
        <ele>40.0321</ele>
        <time>2011-05-21T08:39:33Z</time>
      </trkpt>
      <trkpt lat="59.300074" lon="18.5029822">
        <ele>39.5513</ele>
        <time>2011-05-21T08:39:38Z</time>
      </trkpt>
      <trkpt lat="59.3001188" lon="18.502841">
        <ele>40.0321</ele>
        <time>2011-05-21T08:39:44Z</time>
      </trkpt>
      <trkpt lat="59.3001763" lon="18.5026648">
        <ele>39.5513</ele>
        <time>2011-05-21T08:39:50Z</time>
      </trkpt>
      <trkpt lat="59.3002475" lon="18.5024193">
        <ele>37.6287</ele>
        <time>2011-05-21T08:39:59Z</time>
      </trkpt>
      <trkpt lat="59.300287" lon="18.5022396">
        <ele>37.1481</ele>
        <time>2011-05-21T08:40:05Z</time>
      </trkpt>
      <trkpt lat="59.3003341" lon="18.5020002">
        <ele>34.7449</ele>
        <time>2011-05-21T08:40:13Z</time>
      </trkpt>
      <trkpt lat="59.3003798" lon="18.5017947">
        <ele>34.7449</ele>
        <time>2011-05-21T08:40:20Z</time>
      </trkpt>
      <trkpt lat="59.300415" lon="18.5015904">
        <ele>34.2642</ele>
        <time>2011-05-21T08:40:27Z</time>
      </trkpt>
      <trkpt lat="59.3004466" lon="18.5013973">
        <ele>34.7449</ele>
        <time>2011-05-21T08:40:33Z</time>
      </trkpt>
      <trkpt lat="59.3004786" lon="18.5012188">
        <ele>35.2255</ele>
        <time>2011-05-21T08:40:39Z</time>
      </trkpt>
      <trkpt lat="59.3005221" lon="18.5009511">
        <ele>38.1094</ele>
        <time>2011-05-21T08:40:47Z</time>
      </trkpt>
      <trkpt lat="59.3005632" lon="18.5007398">
        <ele>38.5901</ele>
        <time>2011-05-21T08:40:54Z</time>
      </trkpt>
      <trkpt lat="59.3005984" lon="18.5005455">
        <ele>40.0321</ele>
        <time>2011-05-21T08:41:00Z</time>
      </trkpt>
      <trkpt lat="59.3006332" lon="18.5004023">
        <ele>40.0321</ele>
        <time>2011-05-21T08:41:05Z</time>
      </trkpt>
      <trkpt lat="59.3006736" lon="18.5001815">
        <ele>40.9934</ele>
        <time>2011-05-21T08:41:12Z</time>
      </trkpt>
      <trkpt lat="59.300694" lon="18.50001">
        <ele>41.474</ele>
        <time>2011-05-21T08:41:17Z</time>
      </trkpt>
      <trkpt lat="59.3007161" lon="18.499808">
        <ele>40.0321</ele>
        <time>2011-05-21T08:41:24Z</time>
      </trkpt>
      <trkpt lat="59.30075" lon="18.499608">
        <ele>40.5128</ele>
        <time>2011-05-21T08:41:30Z</time>
      </trkpt>
      <trkpt lat="59.3007941" lon="18.4994375">
        <ele>40.0321</ele>
        <time>2011-05-21T08:41:36Z</time>
      </trkpt>
      <trkpt lat="59.3007971" lon="18.499409">
        <ele>40.0321</ele>
        <time>2011-05-21T08:41:37Z</time>
      </trkpt>
      <trkpt lat="59.3008258" lon="18.4992879">
        <ele>38.1094</ele>
        <time>2011-05-21T08:41:42Z</time>
      </trkpt>
      <trkpt lat="59.3008604" lon="18.4990766">
        <ele>37.1481</ele>
        <time>2011-05-21T08:41:49Z</time>
      </trkpt>
      <trkpt lat="59.3008825" lon="18.4988549">
        <ele>37.1481</ele>
        <time>2011-05-21T08:41:56Z</time>
      </trkpt>
      <trkpt lat="59.3009102" lon="18.4986969">
        <ele>36.6675</ele>
        <time>2011-05-21T08:42:01Z</time>
      </trkpt>
      <trkpt lat="59.3009373" lon="18.49853">
        <ele>35.2255</ele>
        <time>2011-05-21T08:42:07Z</time>
      </trkpt>
      <trkpt lat="59.3009661" lon="18.498326">
        <ele>35.2255</ele>
        <time>2011-05-21T08:42:13Z</time>
      </trkpt>
      <trkpt lat="59.3009988" lon="18.4981474">
        <ele>34.2642</ele>
        <time>2011-05-21T08:42:19Z</time>
      </trkpt>
      <trkpt lat="59.3010115" lon="18.498085">
        <ele>33.7834</ele>
        <time>2011-05-21T08:42:21Z</time>
      </trkpt>
      <trkpt lat="59.3010661" lon="18.4979528">
        <ele>31.8607</ele>
        <time>2011-05-21T08:42:27Z</time>
      </trkpt>
      <trkpt lat="59.301147" lon="18.4977966">
        <ele>31.8607</ele>
        <time>2011-05-21T08:42:34Z</time>
      </trkpt>
      <trkpt lat="59.3012039" lon="18.4977136">
        <ele>32.3416</ele>
        <time>2011-05-21T08:42:38Z</time>
      </trkpt>
      <trkpt lat="59.3012944" lon="18.4976031">
        <ele>32.3416</ele>
        <time>2011-05-21T08:42:44Z</time>
      </trkpt>
      <trkpt lat="59.301322" lon="18.497556">
        <ele>32.8223</ele>
        <time>2011-05-21T08:42:46Z</time>
      </trkpt>
      <trkpt lat="59.3014199" lon="18.4974661">
        <ele>31.3801</ele>
        <time>2011-05-21T08:42:53Z</time>
      </trkpt>
      <trkpt lat="59.3015044" lon="18.4975364">
        <ele>29.9381</ele>
        <time>2011-05-21T08:42:58Z</time>
      </trkpt>
      <trkpt lat="59.3015546" lon="18.4976536">
        <ele>28.4962</ele>
        <time>2011-05-21T08:43:02Z</time>
      </trkpt>
      <trkpt lat="59.3015907" lon="18.4977256">
        <ele>27.5349</ele>
        <time>2011-05-21T08:43:05Z</time>
      </trkpt>
      <trkpt lat="59.3016473" lon="18.4979052">
        <ele>26.5736</ele>
        <time>2011-05-21T08:43:11Z</time>
      </trkpt>
      <trkpt lat="59.3017034" lon="18.4980626">
        <ele>25.6123</ele>
        <time>2011-05-21T08:43:17Z</time>
      </trkpt>
      <trkpt lat="59.3017566" lon="18.4982151">
        <ele>28.4962</ele>
        <time>2011-05-21T08:43:23Z</time>
      </trkpt>
      <trkpt lat="59.3017785" lon="18.4983166">
        <ele>29.4575</ele>
        <time>2011-05-21T08:43:27Z</time>
      </trkpt>
      <trkpt lat="59.3018136" lon="18.4984897">
        <ele>28.4962</ele>
        <time>2011-05-21T08:43:32Z</time>
      </trkpt>
      <trkpt lat="59.3018323" lon="18.4986337">
        <ele>28.9769</ele>
        <time>2011-05-21T08:43:37Z</time>
      </trkpt>
      <trkpt lat="59.3018457" lon="18.4987751">
        <ele>29.9381</ele>
        <time>2011-05-21T08:43:41Z</time>
      </trkpt>
      <trkpt lat="59.3018654" lon="18.498928">
        <ele>32.8223</ele>
        <time>2011-05-21T08:43:46Z</time>
      </trkpt>
      <trkpt lat="59.3018882" lon="18.4990728">
        <ele>34.2642</ele>
        <time>2011-05-21T08:43:50Z</time>
      </trkpt>
      <trkpt lat="59.3019592" lon="18.4993511">
        <ele>36.1868</ele>
        <time>2011-05-21T08:43:58Z</time>
      </trkpt>
      <trkpt lat="59.3020063" lon="18.4994914">
        <ele>36.6675</ele>
        <time>2011-05-21T08:44:03Z</time>
      </trkpt>
      <trkpt lat="59.3020602" lon="18.4996354">
        <ele>37.1481</ele>
        <time>2011-05-21T08:44:08Z</time>
      </trkpt>
      <trkpt lat="59.3020856" lon="18.4998084">
        <ele>35.2255</ele>
        <time>2011-05-21T08:44:13Z</time>
      </trkpt>
      <trkpt lat="59.3021098" lon="18.4999392">
        <ele>33.3029</ele>
        <time>2011-05-21T08:44:17Z</time>
      </trkpt>
      <trkpt lat="59.3021555" lon="18.5001267">
        <ele>28.4962</ele>
        <time>2011-05-21T08:44:24Z</time>
      </trkpt>
      <trkpt lat="59.3021944" lon="18.5002757">
        <ele>27.0543</ele>
        <time>2011-05-21T08:44:29Z</time>
      </trkpt>
      <trkpt lat="59.302216" lon="18.5003847">
        <ele>22.7283</ele>
        <time>2011-05-21T08:44:33Z</time>
      </trkpt>
      <trkpt lat="59.302257" lon="18.5005663">
        <ele>16.9604</ele>
        <time>2011-05-21T08:44:40Z</time>
      </trkpt>
      <trkpt lat="59.302257" lon="18.5005991">
        <ele>16.4797</ele>
        <time>2011-05-21T08:44:41Z</time>
      </trkpt>
      <trkpt lat="59.3022651" lon="18.5006933">
        <ele>14.0764</ele>
        <time>2011-05-21T08:44:44Z</time>
      </trkpt>
      <trkpt lat="59.3022954" lon="18.5008388">
        <ele>11.6732</ele>
        <time>2011-05-21T08:44:49Z</time>
      </trkpt>
      <trkpt lat="59.302356" lon="18.5009208">
        <ele>13.5958</ele>
        <time>2011-05-21T08:44:53Z</time>
      </trkpt>
      <trkpt lat="59.3024083" lon="18.5010999">
        <ele>15.0377</ele>
        <time>2011-05-21T08:44:59Z</time>
      </trkpt>
      <trkpt lat="59.302428" lon="18.5012482">
        <ele>15.0377</ele>
        <time>2011-05-21T08:45:03Z</time>
      </trkpt>
      <trkpt lat="59.3024471" lon="18.5013829">
        <ele>15.0377</ele>
        <time>2011-05-21T08:45:07Z</time>
      </trkpt>
      <trkpt lat="59.3024937" lon="18.5015286">
        <ele>15.999</ele>
        <time>2011-05-21T08:45:12Z</time>
      </trkpt>
      <trkpt lat="59.3025285" lon="18.5016965">
        <ele>15.5184</ele>
        <time>2011-05-21T08:45:17Z</time>
      </trkpt>
      <trkpt lat="59.3025506" lon="18.5017396">
        <ele>15.999</ele>
        <time>2011-05-21T08:45:19Z</time>
      </trkpt>
      <trkpt lat="59.302584" lon="18.5018037">
        <ele>16.9604</ele>
        <time>2011-05-21T08:45:22Z</time>
      </trkpt>
      <trkpt lat="59.3026731" lon="18.5019071">
        <ele>16.9604</ele>
        <time>2011-05-21T08:45:28Z</time>
      </trkpt>
      <trkpt lat="59.302715" lon="18.5019665">
        <ele>17.4412</ele>
        <time>2011-05-21T08:45:31Z</time>
      </trkpt>
      <trkpt lat="59.3027564" lon="18.5020117">
        <ele>16.9604</ele>
        <time>2011-05-21T08:45:35Z</time>
      </trkpt>
      <trkpt lat="59.3027793" lon="18.5019842">
        <ele>18.8831</ele>
        <time>2011-05-21T08:45:37Z</time>
      </trkpt>
      <trkpt lat="59.3028232" lon="18.5018126">
        <ele>21.2864</ele>
        <time>2011-05-21T08:45:43Z</time>
      </trkpt>
      <trkpt lat="59.3028435" lon="18.5016277">
        <ele>22.2476</ele>
        <time>2011-05-21T08:45:49Z</time>
      </trkpt>
      <trkpt lat="59.3028637" lon="18.5014402">
        <ele>21.767</ele>
        <time>2011-05-21T08:45:55Z</time>
      </trkpt>
      <trkpt lat="59.3028831" lon="18.5013201">
        <ele>21.2864</ele>
        <time>2011-05-21T08:45:59Z</time>
      </trkpt>
      <trkpt lat="59.3029272" lon="18.5010684">
        <ele>18.8831</ele>
        <time>2011-05-21T08:46:07Z</time>
      </trkpt>
      <trkpt lat="59.3029504" lon="18.5008912">
        <ele>18.4023</ele>
        <time>2011-05-21T08:46:13Z</time>
      </trkpt>
      <trkpt lat="59.3029724" lon="18.5006316">
        <ele>17.9218</ele>
        <time>2011-05-21T08:46:21Z</time>
      </trkpt>
      <trkpt lat="59.303008" lon="18.5004295">
        <ele>14.557</ele>
        <time>2011-05-21T08:46:28Z</time>
      </trkpt>
      <trkpt lat="59.303039" lon="18.5002571">
        <ele>14.0764</ele>
        <time>2011-05-21T08:46:34Z</time>
      </trkpt>
      <trkpt lat="59.3030449" lon="18.5000851">
        <ele>14.0764</ele>
        <time>2011-05-21T08:46:39Z</time>
      </trkpt>
      <trkpt lat="59.3030673" lon="18.4999043">
        <ele>15.5184</ele>
        <time>2011-05-21T08:46:44Z</time>
      </trkpt>
      <trkpt lat="59.3030976" lon="18.4997256">
        <ele>16.9604</ele>
        <time>2011-05-21T08:46:49Z</time>
      </trkpt>
      <trkpt lat="59.3031386" lon="18.4995495">
        <ele>14.557</ele>
        <time>2011-05-21T08:46:55Z</time>
      </trkpt>
      <trkpt lat="59.3031728" lon="18.4994257">
        <ele>15.0377</ele>
        <time>2011-05-21T08:46:59Z</time>
      </trkpt>
      <trkpt lat="59.3031826" lon="18.4992818">
        <ele>12.6344</ele>
        <time>2011-05-21T08:47:03Z</time>
      </trkpt>
      <trkpt lat="59.3031921" lon="18.4991948">
        <ele>13.1151</ele>
        <time>2011-05-21T08:47:06Z</time>
      </trkpt>
      <trkpt lat="59.3032588" lon="18.4990644">
        <ele>15.999</ele>
        <time>2011-05-21T08:47:11Z</time>
      </trkpt>
      <trkpt lat="59.303266" lon="18.4989907">
        <ele>16.9604</ele>
        <time>2011-05-21T08:47:13Z</time>
      </trkpt>
      <trkpt lat="59.3032519" lon="18.4988205">
        <ele>17.9218</ele>
        <time>2011-05-21T08:47:17Z</time>
      </trkpt>
      <trkpt lat="59.3032916" lon="18.4986469">
        <ele>19.8444</ele>
        <time>2011-05-21T08:47:22Z</time>
      </trkpt>
      <trkpt lat="59.3033256" lon="18.4985289">
        <ele>19.8444</ele>
        <time>2011-05-21T08:47:26Z</time>
      </trkpt>
      <trkpt lat="59.3033527" lon="18.498443">
        <ele>19.3638</ele>
        <time>2011-05-21T08:47:29Z</time>
      </trkpt>
      <trkpt lat="59.3033526" lon="18.4982751">
        <ele>19.8444</ele>
        <time>2011-05-21T08:47:34Z</time>
      </trkpt>
      <trkpt lat="59.3033889" lon="18.4980479">
        <ele>20.8057</ele>
        <time>2011-05-21T08:47:41Z</time>
      </trkpt>
      <trkpt lat="59.3033947" lon="18.4979836">
        <ele>21.2864</ele>
        <time>2011-05-21T08:47:43Z</time>
      </trkpt>
      <trkpt lat="59.3034524" lon="18.4978448">
        <ele>23.209</ele>
        <time>2011-05-21T08:47:48Z</time>
      </trkpt>
      <trkpt lat="59.3034345" lon="18.4976748">
        <ele>24.1703</ele>
        <time>2011-05-21T08:47:52Z</time>
      </trkpt>
      <trkpt lat="59.3034578" lon="18.4975804">
        <ele>24.1703</ele>
        <time>2011-05-21T08:47:55Z</time>
      </trkpt>
      <trkpt lat="59.3034714" lon="18.4973962">
        <ele>25.1317</ele>
        <time>2011-05-21T08:48:00Z</time>
      </trkpt>
      <trkpt lat="59.3035123" lon="18.49719">
        <ele>25.1317</ele>
        <time>2011-05-21T08:48:06Z</time>
      </trkpt>
      <trkpt lat="59.3035171" lon="18.4969869">
        <ele>22.7283</ele>
        <time>2011-05-21T08:48:12Z</time>
      </trkpt>
      <trkpt lat="59.303535" lon="18.4968502">
        <ele>21.767</ele>
        <time>2011-05-21T08:48:17Z</time>
      </trkpt>
      <trkpt lat="59.3035574" lon="18.4966775">
        <ele>21.767</ele>
        <time>2011-05-21T08:48:22Z</time>
      </trkpt>
      <trkpt lat="59.3035801" lon="18.4964553">
        <ele>22.7283</ele>
        <time>2011-05-21T08:48:28Z</time>
      </trkpt>
      <trkpt lat="59.3036074" lon="18.4962545">
        <ele>22.2476</ele>
        <time>2011-05-21T08:48:34Z</time>
      </trkpt>
      <trkpt lat="59.3036136" lon="18.496076">
        <ele>20.8057</ele>
        <time>2011-05-21T08:48:40Z</time>
      </trkpt>
      <trkpt lat="59.303629" lon="18.4958359">
        <ele>21.767</ele>
        <time>2011-05-21T08:48:47Z</time>
      </trkpt>
      <trkpt lat="59.3036376" lon="18.4958007">
        <ele>21.2864</ele>
        <time>2011-05-21T08:48:48Z</time>
      </trkpt>
      <trkpt lat="59.3036867" lon="18.4955593">
        <ele>18.4023</ele>
        <time>2011-05-21T08:48:56Z</time>
      </trkpt>
      <trkpt lat="59.3037106" lon="18.4954213">
        <ele>16.4797</ele>
        <time>2011-05-21T08:49:01Z</time>
      </trkpt>
      <trkpt lat="59.3037437" lon="18.4952317">
        <ele>15.5184</ele>
        <time>2011-05-21T08:49:07Z</time>
      </trkpt>
      <trkpt lat="59.3037806" lon="18.4950395">
        <ele>14.0764</ele>
        <time>2011-05-21T08:49:14Z</time>
      </trkpt>
      <trkpt lat="59.3038363" lon="18.4948382">
        <ele>14.557</ele>
        <time>2011-05-21T08:49:21Z</time>
      </trkpt>
      <trkpt lat="59.3038811" lon="18.4947111">
        <ele>13.5958</ele>
        <time>2011-05-21T08:49:26Z</time>
      </trkpt>
      <trkpt lat="59.3039196" lon="18.4945813">
        <ele>12.1538</ele>
        <time>2011-05-21T08:49:31Z</time>
      </trkpt>
      <trkpt lat="59.3039674" lon="18.494403">
        <ele>11.1925</ele>
        <time>2011-05-21T08:49:38Z</time>
      </trkpt>
      <trkpt lat="59.30401" lon="18.4942786">
        <ele>11.1925</ele>
        <time>2011-05-21T08:49:42Z</time>
      </trkpt>
      <trkpt lat="59.3040504" lon="18.4941113">
        <ele>10.2312</ele>
        <time>2011-05-21T08:49:48Z</time>
      </trkpt>
      <trkpt lat="59.3041058" lon="18.4938953">
        <ele>9.75061</ele>
        <time>2011-05-21T08:49:56Z</time>
      </trkpt>
      <trkpt lat="59.304185" lon="18.4937074">
        <ele>8.78918</ele>
        <time>2011-05-21T08:50:04Z</time>
      </trkpt>
      <trkpt lat="59.304241" lon="18.4935601">
        <ele>7.34717</ele>
        <time>2011-05-21T08:50:10Z</time>
      </trkpt>
      <trkpt lat="59.3042997" lon="18.4933664">
        <ele>6.38586</ele>
        <time>2011-05-21T08:50:17Z</time>
      </trkpt>
      <trkpt lat="59.3043581" lon="18.4931042">
        <ele>4.94385</ele>
        <time>2011-05-21T08:50:26Z</time>
      </trkpt>
      <trkpt lat="59.3043916" lon="18.4929315">
        <ele>3.98267</ele>
        <time>2011-05-21T08:50:32Z</time>
      </trkpt>
      <trkpt lat="59.3044227" lon="18.4927869">
        <ele>3.02124</ele>
        <time>2011-05-21T08:50:37Z</time>
      </trkpt>
      <trkpt lat="59.3044518" lon="18.4925502">
        <ele>5.42456</ele>
        <time>2011-05-21T08:50:44Z</time>
      </trkpt>
      <trkpt lat="59.3044922" lon="18.4923132">
        <ele>5.90527</ele>
        <time>2011-05-21T08:50:51Z</time>
      </trkpt>
      <trkpt lat="59.3045145" lon="18.4922024">
        <ele>6.38586</ele>
        <time>2011-05-21T08:50:55Z</time>
      </trkpt>
      <trkpt lat="59.3045337" lon="18.4920513">
        <ele>4.46326</ele>
        <time>2011-05-21T08:51:00Z</time>
      </trkpt>
      <trkpt lat="59.304557" lon="18.4919316">
        <ele>3.98267</ele>
        <time>2011-05-21T08:51:04Z</time>
      </trkpt>
      <trkpt lat="59.3045876" lon="18.4917016">
        <ele>4.94385</ele>
        <time>2011-05-21T08:51:11Z</time>
      </trkpt>
      <trkpt lat="59.3046001" lon="18.4915394">
        <ele>5.90527</ele>
        <time>2011-05-21T08:51:16Z</time>
      </trkpt>
      <trkpt lat="59.304607" lon="18.4912986">
        <ele>6.38586</ele>
        <time>2011-05-21T08:51:23Z</time>
      </trkpt>
      <trkpt lat="59.3046066" lon="18.4912593">
        <ele>6.86646</ele>
        <time>2011-05-21T08:51:24Z</time>
      </trkpt>
      <trkpt lat="59.3046341" lon="18.4910449">
        <ele>7.82788</ele>
        <time>2011-05-21T08:51:30Z</time>
      </trkpt>
      <trkpt lat="59.3046483" lon="18.4908212">
        <ele>8.78918</ele>
        <time>2011-05-21T08:51:37Z</time>
      </trkpt>
      <trkpt lat="59.3046542" lon="18.4907828">
        <ele>9.75061</ele>
        <time>2011-05-21T08:51:38Z</time>
      </trkpt>
      <trkpt lat="59.3046721" lon="18.4906185">
        <ele>11.6732</ele>
        <time>2011-05-21T08:51:43Z</time>
      </trkpt>
      <trkpt lat="59.3046798" lon="18.4905041">
        <ele>12.6344</ele>
        <time>2011-05-21T08:51:46Z</time>
      </trkpt>
      <trkpt lat="59.3046782" lon="18.4903438">
        <ele>12.1538</ele>
        <time>2011-05-21T08:51:51Z</time>
      </trkpt>
      <trkpt lat="59.3046984" lon="18.4901403">
        <ele>11.6732</ele>
        <time>2011-05-21T08:51:57Z</time>
      </trkpt>
      <trkpt lat="59.3047115" lon="18.490046">
        <ele>11.6732</ele>
        <time>2011-05-21T08:52:00Z</time>
      </trkpt>
      <trkpt lat="59.3047341" lon="18.4898165">
        <ele>10.7118</ele>
        <time>2011-05-21T08:52:07Z</time>
      </trkpt>
      <trkpt lat="59.3047537" lon="18.4895405">
        <ele>9.75061</ele>
        <time>2011-05-21T08:52:16Z</time>
      </trkpt>
      <trkpt lat="59.3047601" lon="18.4893575">
        <ele>8.30859</ele>
        <time>2011-05-21T08:52:22Z</time>
      </trkpt>
      <trkpt lat="59.3047622" lon="18.4891571">
        <ele>7.34717</ele>
        <time>2011-05-21T08:52:28Z</time>
      </trkpt>
      <trkpt lat="59.3047818" lon="18.4889934">
        <ele>5.90527</ele>
        <time>2011-05-21T08:52:33Z</time>
      </trkpt>
      <trkpt lat="59.3047901" lon="18.4887494">
        <ele>7.34717</ele>
        <time>2011-05-21T08:52:40Z</time>
      </trkpt>
      <trkpt lat="59.3047968" lon="18.4885625">
        <ele>7.34717</ele>
        <time>2011-05-21T08:52:46Z</time>
      </trkpt>
      <trkpt lat="59.3048052" lon="18.4883693">
        <ele>7.34717</ele>
        <time>2011-05-21T08:52:52Z</time>
      </trkpt>
      <trkpt lat="59.3048062" lon="18.4883385">
        <ele>7.34717</ele>
        <time>2011-05-21T08:52:53Z</time>
      </trkpt>
      <trkpt lat="59.3048031" lon="18.4881864">
        <ele>7.82788</ele>
        <time>2011-05-21T08:52:58Z</time>
      </trkpt>
      <trkpt lat="59.3048108" lon="18.4879203">
        <ele>8.78918</ele>
        <time>2011-05-21T08:53:06Z</time>
      </trkpt>
      <trkpt lat="59.3048123" lon="18.487712">
        <ele>9.75061</ele>
        <time>2011-05-21T08:53:12Z</time>
      </trkpt>
      <trkpt lat="59.3048047" lon="18.4876264">
        <ele>9.2699</ele>
        <time>2011-05-21T08:53:15Z</time>
      </trkpt>
      <trkpt lat="59.3048" lon="18.4873504">
        <ele>7.34717</ele>
        <time>2011-05-21T08:53:24Z</time>
      </trkpt>
      <trkpt lat="59.3048032" lon="18.4871013">
        <ele>9.75061</ele>
        <time>2011-05-21T08:53:31Z</time>
      </trkpt>
      <trkpt lat="59.3048065" lon="18.4870722">
        <ele>9.2699</ele>
        <time>2011-05-21T08:53:32Z</time>
      </trkpt>
      <trkpt lat="59.3048107" lon="18.4869171">
        <ele>7.34717</ele>
        <time>2011-05-21T08:53:37Z</time>
      </trkpt>
      <trkpt lat="59.3048134" lon="18.4867872">
        <ele>6.38586</ele>
        <time>2011-05-21T08:53:41Z</time>
      </trkpt>
      <trkpt lat="59.3048149" lon="18.4866959">
        <ele>5.42456</ele>
        <time>2011-05-21T08:53:44Z</time>
      </trkpt>
      <trkpt lat="59.3048175" lon="18.4866315">
        <ele>5.42456</ele>
        <time>2011-05-21T08:53:46Z</time>
      </trkpt>
      <trkpt lat="59.3048176" lon="18.4864107">
        <ele>6.86646</ele>
        <time>2011-05-21T08:53:52Z</time>
      </trkpt>
      <trkpt lat="59.3048137" lon="18.4862816">
        <ele>5.42456</ele>
        <time>2011-05-21T08:53:56Z</time>
      </trkpt>
      <trkpt lat="59.3048335" lon="18.4861015">
        <ele>3.50195</ele>
        <time>2011-05-21T08:54:02Z</time>
      </trkpt>
      <trkpt lat="59.3048598" lon="18.4858167">
        <ele>2.06006</ele>
        <time>2011-05-21T08:54:11Z</time>
      </trkpt>
      <trkpt lat="59.3048621" lon="18.4856497">
        <ele>3.50195</ele>
        <time>2011-05-21T08:54:16Z</time>
      </trkpt>
      <trkpt lat="59.3048678" lon="18.4854265">
        <ele>4.46326</ele>
        <time>2011-05-21T08:54:23Z</time>
      </trkpt>
      <trkpt lat="59.3048729" lon="18.4852249">
        <ele>5.90527</ele>
        <time>2011-05-21T08:54:29Z</time>
      </trkpt>
      <trkpt lat="59.3048705" lon="18.4851551">
        <ele>6.86646</ele>
        <time>2011-05-21T08:54:31Z</time>
      </trkpt>
      <trkpt lat="59.3048466" lon="18.4849562">
        <ele>8.78918</ele>
        <time>2011-05-21T08:54:37Z</time>
      </trkpt>
      <trkpt lat="59.3048465" lon="18.4848262">
        <ele>8.78918</ele>
        <time>2011-05-21T08:54:41Z</time>
      </trkpt>
      <trkpt lat="59.3048621" lon="18.4847184">
        <ele>8.78918</ele>
        <time>2011-05-21T08:54:44Z</time>
      </trkpt>
      <trkpt lat="59.3048976" lon="18.4845304">
        <ele>5.42456</ele>
        <time>2011-05-21T08:54:51Z</time>
      </trkpt>
      <trkpt lat="59.3049026" lon="18.4845024">
        <ele>5.42456</ele>
        <time>2011-05-21T08:54:52Z</time>
      </trkpt>
      <trkpt lat="59.3049129" lon="18.4843752">
        <ele>4.94385</ele>
        <time>2011-05-21T08:54:56Z</time>
      </trkpt>
      <trkpt lat="59.3049345" lon="18.4841083">
        <ele>3.02124</ele>
        <time>2011-05-21T08:55:05Z</time>
      </trkpt>
      <trkpt lat="59.3049432" lon="18.4839895">
        <ele>2.54065</ele>
        <time>2011-05-21T08:55:09Z</time>
      </trkpt>
      <trkpt lat="59.3049419" lon="18.4838382">
        <ele>2.54065</ele>
        <time>2011-05-21T08:55:14Z</time>
      </trkpt>
      <trkpt lat="59.3049368" lon="18.4838049">
        <ele>2.54065</ele>
        <time>2011-05-21T08:55:15Z</time>
      </trkpt>
      <trkpt lat="59.3048978" lon="18.4835773">
        <ele>1.09863</ele>
        <time>2011-05-21T08:55:23Z</time>
      </trkpt>
      <trkpt lat="59.3048751" lon="18.4834206">
        <ele>1.09863</ele>
        <time>2011-05-21T08:55:28Z</time>
      </trkpt>
      <trkpt lat="59.3048726" lon="18.4833897">
        <ele>1.57935</ele>
        <time>2011-05-21T08:55:29Z</time>
      </trkpt>
      <trkpt lat="59.3048574" lon="18.4832673">
        <ele>1.09863</ele>
        <time>2011-05-21T08:55:33Z</time>
      </trkpt>
      <trkpt lat="59.3048383" lon="18.4831089">
        <ele>1.57935</ele>
        <time>2011-05-21T08:55:38Z</time>
      </trkpt>
      <trkpt lat="59.304827" lon="18.4830385">
        <ele>1.57935</ele>
        <time>2011-05-21T08:55:40Z</time>
      </trkpt>
      <trkpt lat="59.3048376" lon="18.4828763">
        <ele>3.50195</ele>
        <time>2011-05-21T08:55:45Z</time>
      </trkpt>
      <trkpt lat="59.3048907" lon="18.482621">
        <ele>9.2699</ele>
        <time>2011-05-21T08:55:53Z</time>
      </trkpt>
      <trkpt lat="59.3049419" lon="18.4823604">
        <ele>14.0764</ele>
        <time>2011-05-21T08:56:01Z</time>
      </trkpt>
      <trkpt lat="59.3049905" lon="18.4822066">
        <ele>14.0764</ele>
        <time>2011-05-21T08:56:07Z</time>
      </trkpt>
      <trkpt lat="59.3050095" lon="18.4821527">
        <ele>13.5958</ele>
        <time>2011-05-21T08:56:09Z</time>
      </trkpt>
      <trkpt lat="59.3050553" lon="18.4820241">
        <ele>14.0764</ele>
        <time>2011-05-21T08:56:14Z</time>
      </trkpt>
      <trkpt lat="59.3051081" lon="18.4817579">
        <ele>14.557</ele>
        <time>2011-05-21T08:56:23Z</time>
      </trkpt>
      <trkpt lat="59.3051277" lon="18.4816092">
        <ele>13.5958</ele>
        <time>2011-05-21T08:56:28Z</time>
      </trkpt>
      <trkpt lat="59.3051675" lon="18.4813858">
        <ele>13.5958</ele>
        <time>2011-05-21T08:56:35Z</time>
      </trkpt>
      <trkpt lat="59.3052002" lon="18.4811507">
        <ele>13.1151</ele>
        <time>2011-05-21T08:56:42Z</time>
      </trkpt>
      <trkpt lat="59.3052191" lon="18.4809113">
        <ele>14.0764</ele>
        <time>2011-05-21T08:56:50Z</time>
      </trkpt>
      <trkpt lat="59.3052308" lon="18.4806808">
        <ele>14.557</ele>
        <time>2011-05-21T08:56:57Z</time>
      </trkpt>
      <trkpt lat="59.3052572" lon="18.4804734">
        <ele>15.5184</ele>
        <time>2011-05-21T08:57:03Z</time>
      </trkpt>
      <trkpt lat="59.3052723" lon="18.4803022">
        <ele>16.9604</ele>
        <time>2011-05-21T08:57:08Z</time>
      </trkpt>
      <trkpt lat="59.3053113" lon="18.4800667">
        <ele>14.0764</ele>
        <time>2011-05-21T08:57:16Z</time>
      </trkpt>
      <trkpt lat="59.30535" lon="18.4798743">
        <ele>13.5958</ele>
        <time>2011-05-21T08:57:22Z</time>
      </trkpt>
      <trkpt lat="59.3053972" lon="18.4796332">
        <ele>12.1538</ele>
        <time>2011-05-21T08:57:30Z</time>
      </trkpt>
      <trkpt lat="59.3054237" lon="18.4794383">
        <ele>12.6344</ele>
        <time>2011-05-21T08:57:36Z</time>
      </trkpt>
      <trkpt lat="59.3054603" lon="18.4792359">
        <ele>13.1151</ele>
        <time>2011-05-21T08:57:42Z</time>
      </trkpt>
      <trkpt lat="59.3054655" lon="18.4792024">
        <ele>13.1151</ele>
        <time>2011-05-21T08:57:43Z</time>
      </trkpt>
      <trkpt lat="59.3054858" lon="18.4790314">
        <ele>13.1151</ele>
        <time>2011-05-21T08:57:48Z</time>
      </trkpt>
      <trkpt lat="59.3055128" lon="18.4788203">
        <ele>13.1151</ele>
        <time>2011-05-21T08:57:55Z</time>
      </trkpt>
      <trkpt lat="59.3055164" lon="18.4786767">
        <ele>11.6732</ele>
        <time>2011-05-21T08:58:00Z</time>
      </trkpt>
      <trkpt lat="59.3055213" lon="18.4785629">
        <ele>12.1538</ele>
        <time>2011-05-21T08:58:03Z</time>
      </trkpt>
      <trkpt lat="59.3055494" lon="18.4783888">
        <ele>13.5958</ele>
        <time>2011-05-21T08:58:08Z</time>
      </trkpt>
      <trkpt lat="59.3055915" lon="18.4782338">
        <ele>12.1538</ele>
        <time>2011-05-21T08:58:14Z</time>
      </trkpt>
      <trkpt lat="59.3056553" lon="18.4780183">
        <ele>12.1538</ele>
        <time>2011-05-21T08:58:22Z</time>
      </trkpt>
      <trkpt lat="59.30571" lon="18.4778514">
        <ele>12.6344</ele>
        <time>2011-05-21T08:58:28Z</time>
      </trkpt>
      <trkpt lat="59.3057444" lon="18.4777024">
        <ele>13.5958</ele>
        <time>2011-05-21T08:58:33Z</time>
      </trkpt>
      <trkpt lat="59.3058086" lon="18.4774909">
        <ele>12.1538</ele>
        <time>2011-05-21T08:58:41Z</time>
      </trkpt>
      <trkpt lat="59.305812" lon="18.4774564">
        <ele>12.6344</ele>
        <time>2011-05-21T08:58:42Z</time>
      </trkpt>
      <trkpt lat="59.3058458" lon="18.4773051">
        <ele>12.6344</ele>
        <time>2011-05-21T08:58:47Z</time>
      </trkpt>
      <trkpt lat="59.3058743" lon="18.477058">
        <ele>13.1151</ele>
        <time>2011-05-21T08:58:55Z</time>
      </trkpt>
      <trkpt lat="59.3059088" lon="18.476856">
        <ele>13.1151</ele>
        <time>2011-05-21T08:59:02Z</time>
      </trkpt>
      <trkpt lat="59.3059582" lon="18.47666">
        <ele>13.5958</ele>
        <time>2011-05-21T08:59:10Z</time>
      </trkpt>
      <trkpt lat="59.3060169" lon="18.4764025">
        <ele>13.5958</ele>
        <time>2011-05-21T08:59:19Z</time>
      </trkpt>
      <trkpt lat="59.3060324" lon="18.476236">
        <ele>13.5958</ele>
        <time>2011-05-21T08:59:24Z</time>
      </trkpt>
      <trkpt lat="59.3060696" lon="18.4760469">
        <ele>14.0764</ele>
        <time>2011-05-21T08:59:30Z</time>
      </trkpt>
      <trkpt lat="59.3060795" lon="18.4759569">
        <ele>14.557</ele>
        <time>2011-05-21T08:59:33Z</time>
      </trkpt>
      <trkpt lat="59.3061447" lon="18.4757486">
        <ele>14.557</ele>
        <time>2011-05-21T08:59:41Z</time>
      </trkpt>
      <trkpt lat="59.3061513" lon="18.4757242">
        <ele>14.557</ele>
        <time>2011-05-21T08:59:42Z</time>
      </trkpt>
      <trkpt lat="59.3061868" lon="18.4755567">
        <ele>15.5184</ele>
        <time>2011-05-21T08:59:48Z</time>
      </trkpt>
      <trkpt lat="59.3062113" lon="18.4754443">
        <ele>17.4412</ele>
        <time>2011-05-21T08:59:52Z</time>
      </trkpt>
      <trkpt lat="59.3062181" lon="18.4754163">
        <ele>18.4023</ele>
        <time>2011-05-21T08:59:53Z</time>
      </trkpt>
      <trkpt lat="59.3062577" lon="18.4752358">
        <ele>17.9218</ele>
        <time>2011-05-21T08:59:59Z</time>
      </trkpt>
      <trkpt lat="59.3062995" lon="18.4750616">
        <ele>16.9604</ele>
        <time>2011-05-21T09:00:05Z</time>
      </trkpt>
      <trkpt lat="59.3063403" lon="18.4748794">
        <ele>15.0377</ele>
        <time>2011-05-21T09:00:12Z</time>
      </trkpt>
      <trkpt lat="59.3063435" lon="18.4748533">
        <ele>14.557</ele>
        <time>2011-05-21T09:00:13Z</time>
      </trkpt>
      <trkpt lat="59.3063926" lon="18.4746524">
        <ele>13.5958</ele>
        <time>2011-05-21T09:00:20Z</time>
      </trkpt>
      <trkpt lat="59.3064362" lon="18.4745074">
        <ele>14.557</ele>
        <time>2011-05-21T09:00:25Z</time>
      </trkpt>
      <trkpt lat="59.3064914" lon="18.4743292">
        <ele>15.5184</ele>
        <time>2011-05-21T09:00:31Z</time>
      </trkpt>
      <trkpt lat="59.3065509" lon="18.4741494">
        <ele>16.9604</ele>
        <time>2011-05-21T09:00:38Z</time>
      </trkpt>
      <trkpt lat="59.3066254" lon="18.4738863">
        <ele>17.9218</ele>
        <time>2011-05-21T09:00:47Z</time>
      </trkpt>
      <trkpt lat="59.30672" lon="18.4736489">
        <ele>18.8831</ele>
        <time>2011-05-21T09:00:56Z</time>
      </trkpt>
      <trkpt lat="59.3067523" lon="18.4735418">
        <ele>18.8831</ele>
        <time>2011-05-21T09:01:00Z</time>
      </trkpt>
      <trkpt lat="59.3068139" lon="18.4734102">
        <ele>19.3638</ele>
        <time>2011-05-21T09:01:06Z</time>
      </trkpt>
      <trkpt lat="59.3069009" lon="18.4732651">
        <ele>19.8444</ele>
        <time>2011-05-21T09:01:13Z</time>
      </trkpt>
      <trkpt lat="59.3069423" lon="18.473213">
        <ele>19.3638</ele>
        <time>2011-05-21T09:01:16Z</time>
      </trkpt>
      <trkpt lat="59.3069904" lon="18.4731186">
        <ele>21.767</ele>
        <time>2011-05-21T09:01:20Z</time>
      </trkpt>
      <trkpt lat="59.3070481" lon="18.4730149">
        <ele>24.1703</ele>
        <time>2011-05-21T09:01:24Z</time>
      </trkpt>
      <trkpt lat="59.3070956" lon="18.4729274">
        <ele>24.1703</ele>
        <time>2011-05-21T09:01:28Z</time>
      </trkpt>
      <trkpt lat="59.3071511" lon="18.4728141">
        <ele>22.7283</ele>
        <time>2011-05-21T09:01:33Z</time>
      </trkpt>
      <trkpt lat="59.3072057" lon="18.4726725">
        <ele>22.7283</ele>
        <time>2011-05-21T09:01:39Z</time>
      </trkpt>
      <trkpt lat="59.3072677" lon="18.4725628">
        <ele>21.767</ele>
        <time>2011-05-21T09:01:44Z</time>
      </trkpt>
      <trkpt lat="59.3073403" lon="18.472497">
        <ele>21.2864</ele>
        <time>2011-05-21T09:01:48Z</time>
      </trkpt>
      <trkpt lat="59.3074195" lon="18.4724046">
        <ele>19.8444</ele>
        <time>2011-05-21T09:01:53Z</time>
      </trkpt>
      <trkpt lat="59.3074682" lon="18.4722776">
        <ele>19.3638</ele>
        <time>2011-05-21T09:01:58Z</time>
      </trkpt>
      <trkpt lat="59.3075203" lon="18.4722012">
        <ele>18.8831</ele>
        <time>2011-05-21T09:02:02Z</time>
      </trkpt>
      <trkpt lat="59.3075801" lon="18.4721121">
        <ele>17.4412</ele>
        <time>2011-05-21T09:02:07Z</time>
      </trkpt>
      <trkpt lat="59.3076633" lon="18.4719661">
        <ele>17.4412</ele>
        <time>2011-05-21T09:02:14Z</time>
      </trkpt>
      <trkpt lat="59.3076863" lon="18.4718827">
        <ele>16.9604</ele>
        <time>2011-05-21T09:02:18Z</time>
      </trkpt>
      <trkpt lat="59.3077013" lon="18.4718304">
        <ele>16.9604</ele>
        <time>2011-05-21T09:02:20Z</time>
      </trkpt>
      <trkpt lat="59.3077525" lon="18.4716359">
        <ele>18.8831</ele>
        <time>2011-05-21T09:02:26Z</time>
      </trkpt>
      <trkpt lat="59.3078644" lon="18.4715428">
        <ele>20.325</ele>
        <time>2011-05-21T09:02:33Z</time>
      </trkpt>
      <trkpt lat="59.307936" lon="18.4714815">
        <ele>20.325</ele>
        <time>2011-05-21T09:02:37Z</time>
      </trkpt>
      <trkpt lat="59.3080128" lon="18.4713861">
        <ele>20.325</ele>
        <time>2011-05-21T09:02:42Z</time>
      </trkpt>
      <trkpt lat="59.3080591" lon="18.4713343">
        <ele>20.325</ele>
        <time>2011-05-21T09:02:45Z</time>
      </trkpt>
      <trkpt lat="59.308153" lon="18.4712274">
        <ele>20.8057</ele>
        <time>2011-05-21T09:02:51Z</time>
      </trkpt>
      <trkpt lat="59.308194" lon="18.4711698">
        <ele>20.8057</ele>
        <time>2011-05-21T09:02:54Z</time>
      </trkpt>
      <trkpt lat="59.3082841" lon="18.4710187">
        <ele>20.325</ele>
        <time>2011-05-21T09:03:01Z</time>
      </trkpt>
      <trkpt lat="59.308358" lon="18.4709041">
        <ele>18.8831</ele>
        <time>2011-05-21T09:03:07Z</time>
      </trkpt>
      <trkpt lat="59.3083637" lon="18.4708761">
        <ele>18.4023</ele>
        <time>2011-05-21T09:03:08Z</time>
      </trkpt>
      <trkpt lat="59.3084072" lon="18.4707822">
        <ele>16.9604</ele>
        <time>2011-05-21T09:03:12Z</time>
      </trkpt>
      <trkpt lat="59.3085186" lon="18.470633">
        <ele>13.1151</ele>
        <time>2011-05-21T09:03:20Z</time>
      </trkpt>
      <trkpt lat="59.3086125" lon="18.4704565">
        <ele>11.1925</ele>
        <time>2011-05-21T09:03:28Z</time>
      </trkpt>
      <trkpt lat="59.3086586" lon="18.4703597">
        <ele>11.1925</ele>
        <time>2011-05-21T09:03:32Z</time>
      </trkpt>
      <trkpt lat="59.3087187" lon="18.4702203">
        <ele>13.1151</ele>
        <time>2011-05-21T09:03:38Z</time>
      </trkpt>
      <trkpt lat="59.3087322" lon="18.470196">
        <ele>13.5958</ele>
        <time>2011-05-21T09:03:39Z</time>
      </trkpt>
      <trkpt lat="59.3088164" lon="18.4700167">
        <ele>15.999</ele>
        <time>2011-05-21T09:03:47Z</time>
      </trkpt>
      <trkpt lat="59.3089046" lon="18.4698525">
        <ele>16.9604</ele>
        <time>2011-05-21T09:03:54Z</time>
      </trkpt>
      <trkpt lat="59.3089816" lon="18.4696997">
        <ele>17.4412</ele>
        <time>2011-05-21T09:04:01Z</time>
      </trkpt>
      <trkpt lat="59.3090423" lon="18.469581">
        <ele>17.9218</ele>
        <time>2011-05-21T09:04:06Z</time>
      </trkpt>
      <trkpt lat="59.3091308" lon="18.4694536">
        <ele>17.4412</ele>
        <time>2011-05-21T09:04:13Z</time>
      </trkpt>
      <trkpt lat="59.3092293" lon="18.4692978">
        <ele>17.9218</ele>
        <time>2011-05-21T09:04:21Z</time>
      </trkpt>
      <trkpt lat="59.3092694" lon="18.469233">
        <ele>17.4412</ele>
        <time>2011-05-21T09:04:24Z</time>
      </trkpt>
      <trkpt lat="59.3093931" lon="18.469001">
        <ele>16.4797</ele>
        <time>2011-05-21T09:04:35Z</time>
      </trkpt>
      <trkpt lat="59.3094522" lon="18.4688612">
        <ele>14.0764</ele>
        <time>2011-05-21T09:04:41Z</time>
      </trkpt>
      <trkpt lat="59.3094728" lon="18.4688087">
        <ele>14.0764</ele>
        <time>2011-05-21T09:04:43Z</time>
      </trkpt>
      <trkpt lat="59.3094997" lon="18.4687087">
        <ele>12.1538</ele>
        <time>2011-05-21T09:04:47Z</time>
      </trkpt>
      <trkpt lat="59.3095621" lon="18.4685456">
        <ele>9.2699</ele>
        <time>2011-05-21T09:04:53Z</time>
      </trkpt>
      <trkpt lat="59.3095677" lon="18.4685109">
        <ele>9.2699</ele>
        <time>2011-05-21T09:04:54Z</time>
      </trkpt>
      <trkpt lat="59.3096226" lon="18.4683815">
        <ele>9.2699</ele>
        <time>2011-05-21T09:04:59Z</time>
      </trkpt>
      <trkpt lat="59.309693" lon="18.4683046">
        <ele>10.2312</ele>
        <time>2011-05-21T09:05:04Z</time>
      </trkpt>
      <trkpt lat="59.3097118" lon="18.4682304">
        <ele>10.7118</ele>
        <time>2011-05-21T09:05:07Z</time>
      </trkpt>
      <trkpt lat="59.309752" lon="18.4681119">
        <ele>11.1925</ele>
        <time>2011-05-21T09:05:11Z</time>
      </trkpt>
      <trkpt lat="59.3097932" lon="18.4679975">
        <ele>13.1151</ele>
        <time>2011-05-21T09:05:15Z</time>
      </trkpt>
      <trkpt lat="59.3098203" lon="18.4678697">
        <ele>14.0764</ele>
        <time>2011-05-21T09:05:19Z</time>
      </trkpt>
      <trkpt lat="59.3098729" lon="18.467708">
        <ele>13.5958</ele>
        <time>2011-05-21T09:05:25Z</time>
      </trkpt>
      <trkpt lat="59.3099038" lon="18.4675332">
        <ele>13.1151</ele>
        <time>2011-05-21T09:05:31Z</time>
      </trkpt>
      <trkpt lat="59.3099066" lon="18.4673382">
        <ele>15.5184</ele>
        <time>2011-05-21T09:05:36Z</time>
      </trkpt>
      <trkpt lat="59.3099333" lon="18.46712">
        <ele>18.8831</ele>
        <time>2011-05-21T09:05:43Z</time>
      </trkpt>
      <trkpt lat="59.3099511" lon="18.4669158">
        <ele>19.3638</ele>
        <time>2011-05-21T09:05:49Z</time>
      </trkpt>
      <trkpt lat="59.3099525" lon="18.4668568">
        <ele>19.3638</ele>
        <time>2011-05-21T09:05:51Z</time>
      </trkpt>
      <trkpt lat="59.3099537" lon="18.4666196">
        <ele>22.7283</ele>
        <time>2011-05-21T09:05:57Z</time>
      </trkpt>
      <trkpt lat="59.3099605" lon="18.4665124">
        <ele>23.6896</ele>
        <time>2011-05-21T09:06:00Z</time>
      </trkpt>
      <trkpt lat="59.3099764" lon="18.4664289">
        <ele>22.2476</ele>
        <time>2011-05-21T09:06:03Z</time>
      </trkpt>
      <trkpt lat="59.310022" lon="18.4662114">
        <ele>20.8057</ele>
        <time>2011-05-21T09:06:10Z</time>
      </trkpt>
      <trkpt lat="59.310069" lon="18.4660092">
        <ele>16.9604</ele>
        <time>2011-05-21T09:06:17Z</time>
      </trkpt>
      <trkpt lat="59.3100925" lon="18.4659503">
        <ele>15.999</ele>
        <time>2011-05-21T09:06:19Z</time>
      </trkpt>
      <trkpt lat="59.3101163" lon="18.4657629">
        <ele>14.0764</ele>
        <time>2011-05-21T09:06:25Z</time>
      </trkpt>
      <trkpt lat="59.3102026" lon="18.4654884">
        <ele>11.6732</ele>
        <time>2011-05-21T09:06:35Z</time>
      </trkpt>
      <trkpt lat="59.3102352" lon="18.465343">
        <ele>11.6732</ele>
        <time>2011-05-21T09:06:40Z</time>
      </trkpt>
      <trkpt lat="59.3102826" lon="18.4652001">
        <ele>11.6732</ele>
        <time>2011-05-21T09:06:45Z</time>
      </trkpt>
      <trkpt lat="59.3102887" lon="18.4651736">
        <ele>11.1925</ele>
        <time>2011-05-21T09:06:46Z</time>
      </trkpt>
      <trkpt lat="59.3103003" lon="18.4651203">
        <ele>10.7118</ele>
        <time>2011-05-21T09:06:48Z</time>
      </trkpt>
      <trkpt lat="59.3103276" lon="18.4649977">
        <ele>11.1925</ele>
        <time>2011-05-21T09:06:52Z</time>
      </trkpt>
      <trkpt lat="59.3103911" lon="18.4647525">
        <ele>9.75061</ele>
        <time>2011-05-21T09:07:01Z</time>
      </trkpt>
      <trkpt lat="59.310458" lon="18.4644961">
        <ele>9.2699</ele>
        <time>2011-05-21T09:07:10Z</time>
      </trkpt>
      <trkpt lat="59.3105036" lon="18.464331">
        <ele>10.2312</ele>
        <time>2011-05-21T09:07:16Z</time>
      </trkpt>
      <trkpt lat="59.3105616" lon="18.4641466">
        <ele>10.7118</ele>
        <time>2011-05-21T09:07:23Z</time>
      </trkpt>
      <trkpt lat="59.3105934" lon="18.4640617">
        <ele>11.1925</ele>
        <time>2011-05-21T09:07:26Z</time>
      </trkpt>
      <trkpt lat="59.3106555" lon="18.4638606">
        <ele>9.2699</ele>
        <time>2011-05-21T09:07:33Z</time>
      </trkpt>
      <trkpt lat="59.3107198" lon="18.4636491">
        <ele>9.75061</ele>
        <time>2011-05-21T09:07:40Z</time>
      </trkpt>
      <trkpt lat="59.3107859" lon="18.4635146">
        <ele>8.78918</ele>
        <time>2011-05-21T09:07:45Z</time>
      </trkpt>
      <trkpt lat="59.3108351" lon="18.4633831">
        <ele>7.34717</ele>
        <time>2011-05-21T09:07:50Z</time>
      </trkpt>
      <trkpt lat="59.3108862" lon="18.4632715">
        <ele>5.42456</ele>
        <time>2011-05-21T09:07:54Z</time>
      </trkpt>
      <trkpt lat="59.310896" lon="18.4632418">
        <ele>5.42456</ele>
        <time>2011-05-21T09:07:55Z</time>
      </trkpt>
      <trkpt lat="59.3109174" lon="18.4630993">
        <ele>4.46326</ele>
        <time>2011-05-21T09:07:59Z</time>
      </trkpt>
      <trkpt lat="59.3109659" lon="18.4629987">
        <ele>3.02124</ele>
        <time>2011-05-21T09:08:03Z</time>
      </trkpt>
      <trkpt lat="59.3109973" lon="18.4629017">
        <ele>1.09863</ele>
        <time>2011-05-21T09:08:07Z</time>
      </trkpt>
      <trkpt lat="59.3110628" lon="18.4627081">
        <ele>0.618042</ele>
        <time>2011-05-21T09:08:14Z</time>
      </trkpt>
      <trkpt lat="59.3111093" lon="18.4625763">
        <ele>0.137451</ele>
        <time>2011-05-21T09:08:19Z</time>
      </trkpt>
      <trkpt lat="59.3111311" lon="18.4624553">
        <ele>0.618042</ele>
        <time>2011-05-21T09:08:23Z</time>
      </trkpt>
      <trkpt lat="59.3111939" lon="18.4622861">
        <ele>3.50195</ele>
        <time>2011-05-21T09:08:29Z</time>
      </trkpt>
      <trkpt lat="59.3112393" lon="18.4621082">
        <ele>6.86646</ele>
        <time>2011-05-21T09:08:35Z</time>
      </trkpt>
      <trkpt lat="59.3112864" lon="18.461913">
        <ele>7.82788</ele>
        <time>2011-05-21T09:08:42Z</time>
      </trkpt>
      <trkpt lat="59.3113434" lon="18.4617265">
        <ele>9.75061</ele>
        <time>2011-05-21T09:08:49Z</time>
      </trkpt>
      <trkpt lat="59.3113923" lon="18.4615534">
        <ele>10.7118</ele>
        <time>2011-05-21T09:08:56Z</time>
      </trkpt>
      <trkpt lat="59.311433" lon="18.4613203">
        <ele>12.6344</ele>
        <time>2011-05-21T09:09:04Z</time>
      </trkpt>
      <trkpt lat="59.3114584" lon="18.4611216">
        <ele>14.0764</ele>
        <time>2011-05-21T09:09:11Z</time>
      </trkpt>
      <trkpt lat="59.311495" lon="18.4609566">
        <ele>15.999</ele>
        <time>2011-05-21T09:09:17Z</time>
      </trkpt>
      <trkpt lat="59.3115242" lon="18.4608469">
        <ele>16.4797</ele>
        <time>2011-05-21T09:09:21Z</time>
      </trkpt>
      <trkpt lat="59.3115538" lon="18.4607739">
        <ele>16.9604</ele>
        <time>2011-05-21T09:09:24Z</time>
      </trkpt>
      <trkpt lat="59.3115986" lon="18.4606851">
        <ele>15.999</ele>
        <time>2011-05-21T09:09:28Z</time>
      </trkpt>
      <trkpt lat="59.3116587" lon="18.4605541">
        <ele>18.4023</ele>
        <time>2011-05-21T09:09:34Z</time>
      </trkpt>
      <trkpt lat="59.3117206" lon="18.4603528">
        <ele>19.8444</ele>
        <time>2011-05-21T09:09:41Z</time>
      </trkpt>
      <trkpt lat="59.3117283" lon="18.4603222">
        <ele>19.8444</ele>
        <time>2011-05-21T09:09:42Z</time>
      </trkpt>
      <trkpt lat="59.3117668" lon="18.4601859">
        <ele>18.8831</ele>
        <time>2011-05-21T09:09:47Z</time>
      </trkpt>
      <trkpt lat="59.3117991" lon="18.4600818">
        <ele>18.8831</ele>
        <time>2011-05-21T09:09:51Z</time>
      </trkpt>
      <trkpt lat="59.3118043" lon="18.460049">
        <ele>19.3638</ele>
        <time>2011-05-21T09:09:52Z</time>
      </trkpt>
      <trkpt lat="59.3118433" lon="18.4599041">
        <ele>19.3638</ele>
        <time>2011-05-21T09:09:57Z</time>
      </trkpt>
      <trkpt lat="59.3118724" lon="18.4598446">
        <ele>18.8831</ele>
        <time>2011-05-21T09:10:00Z</time>
      </trkpt>
      <trkpt lat="59.311916" lon="18.4597389">
        <ele>18.8831</ele>
        <time>2011-05-21T09:10:04Z</time>
      </trkpt>
      <trkpt lat="59.3119547" lon="18.4596216">
        <ele>19.3638</ele>
        <time>2011-05-21T09:10:09Z</time>
      </trkpt>
      <trkpt lat="59.3119883" lon="18.4595126">
        <ele>20.325</ele>
        <time>2011-05-21T09:10:13Z</time>
      </trkpt>
      <trkpt lat="59.3120793" lon="18.4594237">
        <ele>18.8831</ele>
        <time>2011-05-21T09:10:19Z</time>
      </trkpt>
      <trkpt lat="59.3121638" lon="18.4593229">
        <ele>18.4023</ele>
        <time>2011-05-21T09:10:24Z</time>
      </trkpt>
      <trkpt lat="59.3122484" lon="18.4592406">
        <ele>17.9218</ele>
        <time>2011-05-21T09:10:29Z</time>
      </trkpt>
      <trkpt lat="59.3123049" lon="18.4591452">
        <ele>15.5184</ele>
        <time>2011-05-21T09:10:34Z</time>
      </trkpt>
      <trkpt lat="59.3124106" lon="18.4590226">
        <ele>14.0764</ele>
        <time>2011-05-21T09:10:41Z</time>
      </trkpt>
      <trkpt lat="59.3124364" lon="18.4590069">
        <ele>13.1151</ele>
        <time>2011-05-21T09:10:43Z</time>
      </trkpt>
      <trkpt lat="59.3124783" lon="18.4589643">
        <ele>12.6344</ele>
        <time>2011-05-21T09:10:46Z</time>
      </trkpt>
      <trkpt lat="59.3125125" lon="18.4589055">
        <ele>12.1538</ele>
        <time>2011-05-21T09:10:49Z</time>
      </trkpt>
      <trkpt lat="59.3125883" lon="18.4587998">
        <ele>12.6344</ele>
        <time>2011-05-21T09:10:54Z</time>
      </trkpt>
      <trkpt lat="59.3126934" lon="18.4586624">
        <ele>14.557</ele>
        <time>2011-05-21T09:11:01Z</time>
      </trkpt>
      <trkpt lat="59.3127208" lon="18.4586241">
        <ele>15.0377</ele>
        <time>2011-05-21T09:11:03Z</time>
      </trkpt>
      <trkpt lat="59.3128048" lon="18.4584997">
        <ele>15.5184</ele>
        <time>2011-05-21T09:11:09Z</time>
      </trkpt>
      <trkpt lat="59.3128498" lon="18.4584036">
        <ele>15.0377</ele>
        <time>2011-05-21T09:11:13Z</time>
      </trkpt>
      <trkpt lat="59.3128727" lon="18.4583616">
        <ele>15.0377</ele>
        <time>2011-05-21T09:11:15Z</time>
      </trkpt>
      <trkpt lat="59.3129168" lon="18.4582686">
        <ele>15.999</ele>
        <time>2011-05-21T09:11:19Z</time>
      </trkpt>
      <trkpt lat="59.3129866" lon="18.4580961">
        <ele>17.4412</ele>
        <time>2011-05-21T09:11:26Z</time>
      </trkpt>
      <trkpt lat="59.3129933" lon="18.4580693">
        <ele>16.9604</ele>
        <time>2011-05-21T09:11:27Z</time>
      </trkpt>
      <trkpt lat="59.3130212" lon="18.4579269">
        <ele>16.9604</ele>
        <time>2011-05-21T09:11:32Z</time>
      </trkpt>
      <trkpt lat="59.3130369" lon="18.4577773">
        <ele>15.999</ele>
        <time>2011-05-21T09:11:37Z</time>
      </trkpt>
      <trkpt lat="59.3130485" lon="18.457595">
        <ele>14.557</ele>
        <time>2011-05-21T09:11:43Z</time>
      </trkpt>
      <trkpt lat="59.3130372" lon="18.4573743">
        <ele>13.1151</ele>
        <time>2011-05-21T09:11:50Z</time>
      </trkpt>
      <trkpt lat="59.3130182" lon="18.4571315">
        <ele>13.5958</ele>
        <time>2011-05-21T09:11:56Z</time>
      </trkpt>
      <trkpt lat="59.3130169" lon="18.4569922">
        <ele>15.0377</ele>
        <time>2011-05-21T09:12:00Z</time>
      </trkpt>
      <trkpt lat="59.3130055" lon="18.4567774">
        <ele>14.557</ele>
        <time>2011-05-21T09:12:07Z</time>
      </trkpt>
      <trkpt lat="59.3129781" lon="18.4565614">
        <ele>15.0377</ele>
        <time>2011-05-21T09:12:13Z</time>
      </trkpt>
      <trkpt lat="59.3129719" lon="18.456384">
        <ele>15.0377</ele>
        <time>2011-05-21T09:12:19Z</time>
      </trkpt>
      <trkpt lat="59.3129968" lon="18.4563075">
        <ele>14.0764</ele>
        <time>2011-05-21T09:12:22Z</time>
      </trkpt>
      <trkpt lat="59.3130104" lon="18.4561204">
        <ele>13.5958</ele>
        <time>2011-05-21T09:12:28Z</time>
      </trkpt>
      <trkpt lat="59.3130394" lon="18.455845">
        <ele>14.0764</ele>
        <time>2011-05-21T09:12:37Z</time>
      </trkpt>
      <trkpt lat="59.3130602" lon="18.4556073">
        <ele>13.5958</ele>
        <time>2011-05-21T09:12:45Z</time>
      </trkpt>
      <trkpt lat="59.3130673" lon="18.4554998">
        <ele>13.5958</ele>
        <time>2011-05-21T09:12:49Z</time>
      </trkpt>
      <trkpt lat="59.3130736" lon="18.4552701">
        <ele>15.999</ele>
        <time>2011-05-21T09:12:56Z</time>
      </trkpt>
      <trkpt lat="59.3130669" lon="18.4550443">
        <ele>18.4023</ele>
        <time>2011-05-21T09:13:03Z</time>
      </trkpt>
      <trkpt lat="59.3130534" lon="18.4548689">
        <ele>20.8057</ele>
        <time>2011-05-21T09:13:08Z</time>
      </trkpt>
      <trkpt lat="59.3130559" lon="18.4547297">
        <ele>20.325</ele>
        <time>2011-05-21T09:13:13Z</time>
      </trkpt>
      <trkpt lat="59.313061" lon="18.4545368">
        <ele>18.8831</ele>
        <time>2011-05-21T09:13:20Z</time>
      </trkpt>
      <trkpt lat="59.313063" lon="18.4543949">
        <ele>18.8831</ele>
        <time>2011-05-21T09:13:25Z</time>
      </trkpt>
      <trkpt lat="59.3130644" lon="18.4542386">
        <ele>19.8444</ele>
        <time>2011-05-21T09:13:30Z</time>
      </trkpt>
      <trkpt lat="59.313044" lon="18.4541066">
        <ele>18.8831</ele>
        <time>2011-05-21T09:13:35Z</time>
      </trkpt>
      <trkpt lat="59.3130383" lon="18.4540832">
        <ele>18.4023</ele>
        <time>2011-05-21T09:13:36Z</time>
      </trkpt>
      <trkpt lat="59.3130559" lon="18.4540066">
        <ele>17.9218</ele>
        <time>2011-05-21T09:13:39Z</time>
      </trkpt>
      <trkpt lat="59.3130556" lon="18.4539508">
        <ele>16.9604</ele>
        <time>2011-05-21T09:13:42Z</time>
      </trkpt>
      <trkpt lat="59.3130529" lon="18.4537627">
        <ele>17.9218</ele>
        <time>2011-05-21T09:13:48Z</time>
      </trkpt>
      <trkpt lat="59.3130517" lon="18.4537346">
        <ele>16.9604</ele>
        <time>2011-05-21T09:13:49Z</time>
      </trkpt>
      <trkpt lat="59.3130238" lon="18.4535684">
        <ele>17.9218</ele>
        <time>2011-05-21T09:13:55Z</time>
      </trkpt>
      <trkpt lat="59.3130097" lon="18.4534885">
        <ele>19.3638</ele>
        <time>2011-05-21T09:13:58Z</time>
      </trkpt>
      <trkpt lat="59.3129887" lon="18.4531784">
        <ele>21.2864</ele>
        <time>2011-05-21T09:14:07Z</time>
      </trkpt>
      <trkpt lat="59.3129734" lon="18.4530049">
        <ele>21.2864</ele>
        <time>2011-05-21T09:14:12Z</time>
      </trkpt>
      <trkpt lat="59.3129871" lon="18.452839">
        <ele>21.2864</ele>
        <time>2011-05-21T09:14:17Z</time>
      </trkpt>
      <trkpt lat="59.3129912" lon="18.4527526">
        <ele>20.8057</ele>
        <time>2011-05-21T09:14:20Z</time>
      </trkpt>
      <trkpt lat="59.312981" lon="18.4525889">
        <ele>20.8057</ele>
        <time>2011-05-21T09:14:25Z</time>
      </trkpt>
      <trkpt lat="59.3129932" lon="18.4524012">
        <ele>20.8057</ele>
        <time>2011-05-21T09:14:31Z</time>
      </trkpt>
      <trkpt lat="59.3130098" lon="18.4521819">
        <ele>18.4023</ele>
        <time>2011-05-21T09:14:38Z</time>
      </trkpt>
      <trkpt lat="59.3130191" lon="18.4521537">
        <ele>18.4023</ele>
        <time>2011-05-21T09:14:39Z</time>
      </trkpt>
      <trkpt lat="59.3130435" lon="18.4519434">
        <ele>15.999</ele>
        <time>2011-05-21T09:14:46Z</time>
      </trkpt>
      <trkpt lat="59.313071" lon="18.4516678">
        <ele>15.0377</ele>
        <time>2011-05-21T09:14:55Z</time>
      </trkpt>
      <trkpt lat="59.3130753" lon="18.4514544">
        <ele>14.557</ele>
        <time>2011-05-21T09:15:02Z</time>
      </trkpt>
      <trkpt lat="59.3130884" lon="18.4512325">
        <ele>15.999</ele>
        <time>2011-05-21T09:15:09Z</time>
      </trkpt>
      <trkpt lat="59.3131099" lon="18.4509807">
        <ele>15.5184</ele>
        <time>2011-05-21T09:15:17Z</time>
      </trkpt>
      <trkpt lat="59.3131217" lon="18.4508395">
        <ele>15.999</ele>
        <time>2011-05-21T09:15:22Z</time>
      </trkpt>
      <trkpt lat="59.3131228" lon="18.4506395">
        <ele>16.4797</ele>
        <time>2011-05-21T09:15:28Z</time>
      </trkpt>
      <trkpt lat="59.3131089" lon="18.450494">
        <ele>17.9218</ele>
        <time>2011-05-21T09:15:32Z</time>
      </trkpt>
      <trkpt lat="59.313117" lon="18.4503391">
        <ele>17.9218</ele>
        <time>2011-05-21T09:15:37Z</time>
      </trkpt>
      <trkpt lat="59.3131118" lon="18.4502674">
        <ele>18.8831</ele>
        <time>2011-05-21T09:15:39Z</time>
      </trkpt>
      <trkpt lat="59.3131071" lon="18.4500795">
        <ele>17.9218</ele>
        <time>2011-05-21T09:15:45Z</time>
      </trkpt>
      <trkpt lat="59.3131255" lon="18.4499255">
        <ele>17.4412</ele>
        <time>2011-05-21T09:15:51Z</time>
      </trkpt>
      <trkpt lat="59.313126" lon="18.4498765">
        <ele>16.9604</ele>
        <time>2011-05-21T09:15:53Z</time>
      </trkpt>
      <trkpt lat="59.313081" lon="18.4499397">
        <ele>9.2699</ele>
        <time>2011-05-21T09:22:27Z</time>
      </trkpt>
      <trkpt lat="59.3130789" lon="18.4499882">
        <ele>9.2699</ele>
        <time>2011-05-21T09:22:28Z</time>
      </trkpt>
      <trkpt lat="59.3130736" lon="18.4501835">
        <ele>9.2699</ele>
        <time>2011-05-21T09:22:35Z</time>
      </trkpt>
      <trkpt lat="59.3130696" lon="18.4503697">
        <ele>7.82788</ele>
        <time>2011-05-21T09:22:41Z</time>
      </trkpt>
      <trkpt lat="59.3131031" lon="18.4504919">
        <ele>6.38586</ele>
        <time>2011-05-21T09:22:44Z</time>
      </trkpt>
      <trkpt lat="59.3130896" lon="18.4505861">
        <ele>7.34717</ele>
        <time>2011-05-21T09:22:48Z</time>
      </trkpt>
      <trkpt lat="59.3130865" lon="18.4507213">
        <ele>6.86646</ele>
        <time>2011-05-21T09:22:52Z</time>
      </trkpt>
      <trkpt lat="59.3130801" lon="18.4507804">
        <ele>6.86646</ele>
        <time>2011-05-21T09:22:54Z</time>
      </trkpt>
      <trkpt lat="59.3130584" lon="18.4510835">
        <ele>6.38586</ele>
        <time>2011-05-21T09:23:04Z</time>
      </trkpt>
      <trkpt lat="59.3130451" lon="18.4512662">
        <ele>5.42456</ele>
        <time>2011-05-21T09:23:10Z</time>
      </trkpt>
      <trkpt lat="59.3130461" lon="18.4513265">
        <ele>5.90527</ele>
        <time>2011-05-21T09:23:12Z</time>
      </trkpt>
      <trkpt lat="59.313043" lon="18.4514751">
        <ele>5.90527</ele>
        <time>2011-05-21T09:23:17Z</time>
      </trkpt>
      <trkpt lat="59.3130382" lon="18.4516296">
        <ele>5.90527</ele>
        <time>2011-05-21T09:23:22Z</time>
      </trkpt>
      <trkpt lat="59.3130198" lon="18.4518035">
        <ele>7.34717</ele>
        <time>2011-05-21T09:23:28Z</time>
      </trkpt>
      <trkpt lat="59.3130146" lon="18.4518626">
        <ele>7.82788</ele>
        <time>2011-05-21T09:23:30Z</time>
      </trkpt>
      <trkpt lat="59.3129988" lon="18.4520222">
        <ele>7.82788</ele>
        <time>2011-05-21T09:23:35Z</time>
      </trkpt>
      <trkpt lat="59.3129799" lon="18.4523396">
        <ele>8.78918</ele>
        <time>2011-05-21T09:23:44Z</time>
      </trkpt>
      <trkpt lat="59.3129605" lon="18.4525407">
        <ele>9.2699</ele>
        <time>2011-05-21T09:23:50Z</time>
      </trkpt>
      <trkpt lat="59.3129626" lon="18.4527155">
        <ele>10.7118</ele>
        <time>2011-05-21T09:23:56Z</time>
      </trkpt>
      <trkpt lat="59.3129726" lon="18.4529155">
        <ele>12.1538</ele>
        <time>2011-05-21T09:24:02Z</time>
      </trkpt>
      <trkpt lat="59.3129944" lon="18.4531291">
        <ele>13.5958</ele>
        <time>2011-05-21T09:24:09Z</time>
      </trkpt>
      <trkpt lat="59.3130191" lon="18.4532803">
        <ele>13.1151</ele>
        <time>2011-05-21T09:24:14Z</time>
      </trkpt>
      <trkpt lat="59.3130463" lon="18.4534092">
        <ele>12.6344</ele>
        <time>2011-05-21T09:24:20Z</time>
      </trkpt>
      <trkpt lat="59.3130518" lon="18.4534425">
        <ele>12.1538</ele>
        <time>2011-05-21T09:24:21Z</time>
      </trkpt>
      <trkpt lat="59.3130724" lon="18.4536265">
        <ele>13.5958</ele>
        <time>2011-05-21T09:24:26Z</time>
      </trkpt>
      <trkpt lat="59.313098" lon="18.4538059">
        <ele>14.0764</ele>
        <time>2011-05-21T09:24:32Z</time>
      </trkpt>
      <trkpt lat="59.3130964" lon="18.4539896">
        <ele>14.0764</ele>
        <time>2011-05-21T09:24:38Z</time>
      </trkpt>
      <trkpt lat="59.3131094" lon="18.454178">
        <ele>13.5958</ele>
        <time>2011-05-21T09:24:43Z</time>
      </trkpt>
      <trkpt lat="59.3131146" lon="18.4542095">
        <ele>13.5958</ele>
        <time>2011-05-21T09:24:44Z</time>
      </trkpt>
      <trkpt lat="59.3131356" lon="18.4543931">
        <ele>15.0377</ele>
        <time>2011-05-21T09:24:50Z</time>
      </trkpt>
      <trkpt lat="59.3131239" lon="18.4546141">
        <ele>12.6344</ele>
        <time>2011-05-21T09:24:57Z</time>
      </trkpt>
      <trkpt lat="59.3131233" lon="18.4547542">
        <ele>12.6344</ele>
        <time>2011-05-21T09:25:01Z</time>
      </trkpt>
      <trkpt lat="59.3131262" lon="18.4549152">
        <ele>12.1538</ele>
        <time>2011-05-21T09:25:06Z</time>
      </trkpt>
      <trkpt lat="59.3130995" lon="18.4551001">
        <ele>9.75061</ele>
        <time>2011-05-21T09:25:12Z</time>
      </trkpt>
      <trkpt lat="59.3131037" lon="18.4552757">
        <ele>6.86646</ele>
        <time>2011-05-21T09:25:17Z</time>
      </trkpt>
      <trkpt lat="59.3131088" lon="18.4553161">
        <ele>6.86646</ele>
        <time>2011-05-21T09:25:18Z</time>
      </trkpt>
      <trkpt lat="59.3130933" lon="18.4554632">
        <ele>6.38586</ele>
        <time>2011-05-21T09:25:23Z</time>
      </trkpt>
      <trkpt lat="59.3130917" lon="18.4554931">
        <ele>5.90527</ele>
        <time>2011-05-21T09:25:24Z</time>
      </trkpt>
      <trkpt lat="59.3130843" lon="18.4557071">
        <ele>6.86646</ele>
        <time>2011-05-21T09:25:31Z</time>
      </trkpt>
      <trkpt lat="59.3130693" lon="18.4559796">
        <ele>6.86646</ele>
        <time>2011-05-21T09:25:39Z</time>
      </trkpt>
      <trkpt lat="59.3130674" lon="18.4561682">
        <ele>6.86646</ele>
        <time>2011-05-21T09:25:45Z</time>
      </trkpt>
      <trkpt lat="59.3130651" lon="18.4563775">
        <ele>7.82788</ele>
        <time>2011-05-21T09:25:51Z</time>
      </trkpt>
      <trkpt lat="59.31306" lon="18.456556">
        <ele>7.82788</ele>
        <time>2011-05-21T09:25:56Z</time>
      </trkpt>
      <trkpt lat="59.3130683" lon="18.4567185">
        <ele>8.78918</ele>
        <time>2011-05-21T09:26:01Z</time>
      </trkpt>
      <trkpt lat="59.3130797" lon="18.456915">
        <ele>10.2312</ele>
        <time>2011-05-21T09:26:07Z</time>
      </trkpt>
      <trkpt lat="59.3130814" lon="18.4570013">
        <ele>10.2312</ele>
        <time>2011-05-21T09:26:10Z</time>
      </trkpt>
      <trkpt lat="59.3130715" lon="18.4571631">
        <ele>10.7118</ele>
        <time>2011-05-21T09:26:16Z</time>
      </trkpt>
      <trkpt lat="59.3130798" lon="18.4573475">
        <ele>11.1925</ele>
        <time>2011-05-21T09:26:21Z</time>
      </trkpt>
      <trkpt lat="59.3130742" lon="18.4575138">
        <ele>10.7118</ele>
        <time>2011-05-21T09:26:26Z</time>
      </trkpt>
      <trkpt lat="59.3130691" lon="18.4576801">
        <ele>10.7118</ele>
        <time>2011-05-21T09:26:31Z</time>
      </trkpt>
      <trkpt lat="59.3130503" lon="18.457926">
        <ele>9.75061</ele>
        <time>2011-05-21T09:26:39Z</time>
      </trkpt>
      <trkpt lat="59.3129796" lon="18.4582157">
        <ele>10.2312</ele>
        <time>2011-05-21T09:26:49Z</time>
      </trkpt>
      <trkpt lat="59.3128519" lon="18.4584706">
        <ele>9.75061</ele>
        <time>2011-05-21T09:27:00Z</time>
      </trkpt>
      <trkpt lat="59.3126836" lon="18.4587416">
        <ele>11.1925</ele>
        <time>2011-05-21T09:27:13Z</time>
      </trkpt>
      <trkpt lat="59.3125064" lon="18.4589826">
        <ele>12.1538</ele>
        <time>2011-05-21T09:27:26Z</time>
      </trkpt>
      <trkpt lat="59.3123835" lon="18.4591355">
        <ele>12.1538</ele>
        <time>2011-05-21T09:27:35Z</time>
      </trkpt>
      <trkpt lat="59.3122562" lon="18.4592862">
        <ele>12.6344</ele>
        <time>2011-05-21T09:27:44Z</time>
      </trkpt>
      <trkpt lat="59.3121187" lon="18.4594562">
        <ele>12.6344</ele>
        <time>2011-05-21T09:27:54Z</time>
      </trkpt>
      <trkpt lat="59.3120033" lon="18.459612">
        <ele>12.6344</ele>
        <time>2011-05-21T09:28:03Z</time>
      </trkpt>
      <trkpt lat="59.3118936" lon="18.4597554">
        <ele>13.1151</ele>
        <time>2011-05-21T09:28:11Z</time>
      </trkpt>
      <trkpt lat="59.3117857" lon="18.4599531">
        <ele>14.0764</ele>
        <time>2011-05-21T09:28:20Z</time>
      </trkpt>
      <trkpt lat="59.3117069" lon="18.4602807">
        <ele>13.5958</ele>
        <time>2011-05-21T09:28:31Z</time>
      </trkpt>
      <trkpt lat="59.3116339" lon="18.4604952">
        <ele>14.0764</ele>
        <time>2011-05-21T09:28:39Z</time>
      </trkpt>
      <trkpt lat="59.3115574" lon="18.4607427">
        <ele>14.0764</ele>
        <time>2011-05-21T09:28:48Z</time>
      </trkpt>
      <trkpt lat="59.3114779" lon="18.4609452">
        <ele>14.0764</ele>
        <time>2011-05-21T09:28:56Z</time>
      </trkpt>
      <trkpt lat="59.3114377" lon="18.461207">
        <ele>15.5184</ele>
        <time>2011-05-21T09:29:05Z</time>
      </trkpt>
      <trkpt lat="59.3114247" lon="18.4614364">
        <ele>15.5184</ele>
        <time>2011-05-21T09:29:12Z</time>
      </trkpt>
      <trkpt lat="59.3113544" lon="18.461684">
        <ele>12.6344</ele>
        <time>2011-05-21T09:29:20Z</time>
      </trkpt>
      <trkpt lat="59.3112533" lon="18.4620233">
        <ele>9.2699</ele>
        <time>2011-05-21T09:29:31Z</time>
      </trkpt>
      <trkpt lat="59.3111443" lon="18.46233">
        <ele>7.82788</ele>
        <time>2011-05-21T09:29:42Z</time>
      </trkpt>
      <trkpt lat="59.3110549" lon="18.462615">
        <ele>7.34717</ele>
        <time>2011-05-21T09:29:52Z</time>
      </trkpt>
      <trkpt lat="59.3109663" lon="18.4629013">
        <ele>6.86646</ele>
        <time>2011-05-21T09:30:02Z</time>
      </trkpt>
      <trkpt lat="59.3108944" lon="18.463161">
        <ele>6.38586</ele>
        <time>2011-05-21T09:30:11Z</time>
      </trkpt>
      <trkpt lat="59.3107993" lon="18.4634226">
        <ele>5.90527</ele>
        <time>2011-05-21T09:30:21Z</time>
      </trkpt>
      <trkpt lat="59.3107207" lon="18.463671">
        <ele>5.42456</ele>
        <time>2011-05-21T09:30:30Z</time>
      </trkpt>
      <trkpt lat="59.3106504" lon="18.4638896">
        <ele>5.90527</ele>
        <time>2011-05-21T09:30:38Z</time>
      </trkpt>
      <trkpt lat="59.3105896" lon="18.4640812">
        <ele>5.42456</ele>
        <time>2011-05-21T09:30:45Z</time>
      </trkpt>
      <trkpt lat="59.3105109" lon="18.464327">
        <ele>5.90527</ele>
        <time>2011-05-21T09:30:54Z</time>
      </trkpt>
      <trkpt lat="59.3104271" lon="18.4646355">
        <ele>5.90527</ele>
        <time>2011-05-21T09:31:05Z</time>
      </trkpt>
      <trkpt lat="59.3103411" lon="18.4649791">
        <ele>5.90527</ele>
        <time>2011-05-21T09:31:17Z</time>
      </trkpt>
      <trkpt lat="59.3102842" lon="18.4652044">
        <ele>6.38586</ele>
        <time>2011-05-21T09:31:25Z</time>
      </trkpt>
      <trkpt lat="59.3102219" lon="18.4654649">
        <ele>6.86646</ele>
        <time>2011-05-21T09:31:34Z</time>
      </trkpt>
      <trkpt lat="59.3101504" lon="18.4657248">
        <ele>6.86646</ele>
        <time>2011-05-21T09:31:43Z</time>
      </trkpt>
      <trkpt lat="59.3100716" lon="18.4659678">
        <ele>6.86646</ele>
        <time>2011-05-21T09:31:52Z</time>
      </trkpt>
      <trkpt lat="59.3099758" lon="18.4662957">
        <ele>8.30859</ele>
        <time>2011-05-21T09:32:04Z</time>
      </trkpt>
      <trkpt lat="59.3099368" lon="18.4664963">
        <ele>9.2699</ele>
        <time>2011-05-21T09:32:11Z</time>
      </trkpt>
      <trkpt lat="59.3099135" lon="18.4667118">
        <ele>10.2312</ele>
        <time>2011-05-21T09:32:18Z</time>
      </trkpt>
      <trkpt lat="59.3098817" lon="18.4670248">
        <ele>11.1925</ele>
        <time>2011-05-21T09:32:28Z</time>
      </trkpt>
      <trkpt lat="59.3098521" lon="18.4673421">
        <ele>10.7118</ele>
        <time>2011-05-21T09:32:38Z</time>
      </trkpt>
      <trkpt lat="59.3098152" lon="18.4676096">
        <ele>10.7118</ele>
        <time>2011-05-21T09:32:47Z</time>
      </trkpt>
      <trkpt lat="59.3097869" lon="18.4677839">
        <ele>12.1538</ele>
        <time>2011-05-21T09:32:53Z</time>
      </trkpt>
      <trkpt lat="59.3097599" lon="18.4679223">
        <ele>11.6732</ele>
        <time>2011-05-21T09:32:57Z</time>
      </trkpt>
      <trkpt lat="59.3096839" lon="18.4681442">
        <ele>9.75061</ele>
        <time>2011-05-21T09:33:05Z</time>
      </trkpt>
      <trkpt lat="59.3096376" lon="18.4682783">
        <ele>8.78918</ele>
        <time>2011-05-21T09:33:10Z</time>
      </trkpt>
      <trkpt lat="59.3095636" lon="18.4684912">
        <ele>8.78918</ele>
        <time>2011-05-21T09:33:18Z</time>
      </trkpt>
      <trkpt lat="59.3094982" lon="18.4686661">
        <ele>8.78918</ele>
        <time>2011-05-21T09:33:24Z</time>
      </trkpt>
      <trkpt lat="59.3094403" lon="18.468823">
        <ele>8.30859</ele>
        <time>2011-05-21T09:33:30Z</time>
      </trkpt>
      <trkpt lat="59.3093432" lon="18.4690424">
        <ele>7.34717</ele>
        <time>2011-05-21T09:33:39Z</time>
      </trkpt>
      <trkpt lat="59.3092756" lon="18.4691838">
        <ele>5.42456</ele>
        <time>2011-05-21T09:33:45Z</time>
      </trkpt>
      <trkpt lat="59.3092412" lon="18.4692464">
        <ele>5.42456</ele>
        <time>2011-05-21T09:33:48Z</time>
      </trkpt>
      <trkpt lat="59.3091772" lon="18.4693937">
        <ele>3.50195</ele>
        <time>2011-05-21T09:33:54Z</time>
      </trkpt>
      <trkpt lat="59.3090795" lon="18.469524">
        <ele>3.98267</ele>
        <time>2011-05-21T09:34:01Z</time>
      </trkpt>
      <trkpt lat="59.3090666" lon="18.469537">
        <ele>3.98267</ele>
        <time>2011-05-21T09:34:02Z</time>
      </trkpt>
      <trkpt lat="59.3089725" lon="18.4696996">
        <ele>5.42456</ele>
        <time>2011-05-21T09:34:09Z</time>
      </trkpt>
      <trkpt lat="59.3089254" lon="18.4698166">
        <ele>5.90527</ele>
        <time>2011-05-21T09:34:14Z</time>
      </trkpt>
      <trkpt lat="59.308864" lon="18.4699513">
        <ele>5.42456</ele>
        <time>2011-05-21T09:34:20Z</time>
      </trkpt>
      <trkpt lat="59.3087964" lon="18.4700393">
        <ele>5.90527</ele>
        <time>2011-05-21T09:34:25Z</time>
      </trkpt>
      <trkpt lat="59.308773" lon="18.4700787">
        <ele>6.38586</ele>
        <time>2011-05-21T09:34:27Z</time>
      </trkpt>
      <trkpt lat="59.3086788" lon="18.4702649">
        <ele>7.34717</ele>
        <time>2011-05-21T09:34:35Z</time>
      </trkpt>
      <trkpt lat="59.3086467" lon="18.470333">
        <ele>6.38586</ele>
        <time>2011-05-21T09:34:38Z</time>
      </trkpt>
      <trkpt lat="59.3085825" lon="18.4705273">
        <ele>4.46326</ele>
        <time>2011-05-21T09:34:45Z</time>
      </trkpt>
      <trkpt lat="59.3085512" lon="18.4705999">
        <ele>3.50195</ele>
        <time>2011-05-21T09:34:48Z</time>
      </trkpt>
      <trkpt lat="59.3084628" lon="18.4707221">
        <ele>3.98267</ele>
        <time>2011-05-21T09:34:54Z</time>
      </trkpt>
      <trkpt lat="59.3083768" lon="18.4708382">
        <ele>3.50195</ele>
        <time>2011-05-21T09:35:00Z</time>
      </trkpt>
      <trkpt lat="59.3082896" lon="18.4709663">
        <ele>4.94385</ele>
        <time>2011-05-21T09:35:06Z</time>
      </trkpt>
      <trkpt lat="59.3082551" lon="18.4710387">
        <ele>5.42456</ele>
        <time>2011-05-21T09:35:09Z</time>
      </trkpt>
      <trkpt lat="59.3081934" lon="18.4711508">
        <ele>6.38586</ele>
        <time>2011-05-21T09:35:14Z</time>
      </trkpt>
      <trkpt lat="59.3081062" lon="18.4712697">
        <ele>8.30859</ele>
        <time>2011-05-21T09:35:20Z</time>
      </trkpt>
      <trkpt lat="59.3080401" lon="18.4713868">
        <ele>9.2699</ele>
        <time>2011-05-21T09:35:25Z</time>
      </trkpt>
      <trkpt lat="59.3079811" lon="18.4715059">
        <ele>9.2699</ele>
        <time>2011-05-21T09:35:30Z</time>
      </trkpt>
      <trkpt lat="59.3079251" lon="18.471567">
        <ele>9.2699</ele>
        <time>2011-05-21T09:35:34Z</time>
      </trkpt>
      <trkpt lat="59.307832" lon="18.4716319">
        <ele>10.2312</ele>
        <time>2011-05-21T09:35:41Z</time>
      </trkpt>
      <trkpt lat="59.3077702" lon="18.4716458">
        <ele>10.7118</ele>
        <time>2011-05-21T09:35:46Z</time>
      </trkpt>
      <trkpt lat="59.3076991" lon="18.471776">
        <ele>10.7118</ele>
        <time>2011-05-21T09:35:52Z</time>
      </trkpt>
      <trkpt lat="59.3077011" lon="18.471879">
        <ele>8.78918</ele>
        <time>2011-05-21T09:35:55Z</time>
      </trkpt>
      <trkpt lat="59.3076696" lon="18.4720203">
        <ele>8.78918</ele>
        <time>2011-05-21T09:36:02Z</time>
      </trkpt>
      <trkpt lat="59.3076361" lon="18.4720451">
        <ele>9.2699</ele>
        <time>2011-05-21T09:36:04Z</time>
      </trkpt>
      <trkpt lat="59.3076008" lon="18.4720778">
        <ele>9.75061</ele>
        <time>2011-05-21T09:36:06Z</time>
      </trkpt>
      <trkpt lat="59.3075739" lon="18.472115">
        <ele>9.2699</ele>
        <time>2011-05-21T09:36:08Z</time>
      </trkpt>
      <trkpt lat="59.3074962" lon="18.4722232">
        <ele>9.75061</ele>
        <time>2011-05-21T09:36:13Z</time>
      </trkpt>
      <trkpt lat="59.30741" lon="18.4723471">
        <ele>8.78918</ele>
        <time>2011-05-21T09:36:19Z</time>
      </trkpt>
      <trkpt lat="59.3073201" lon="18.4724971">
        <ele>8.30859</ele>
        <time>2011-05-21T09:36:25Z</time>
      </trkpt>
      <trkpt lat="59.3072489" lon="18.4726121">
        <ele>8.78918</ele>
        <time>2011-05-21T09:36:30Z</time>
      </trkpt>
      <trkpt lat="59.3072004" lon="18.4727264">
        <ele>8.78918</ele>
        <time>2011-05-21T09:36:34Z</time>
      </trkpt>
      <trkpt lat="59.3071693" lon="18.472786">
        <ele>9.2699</ele>
        <time>2011-05-21T09:36:36Z</time>
      </trkpt>
      <trkpt lat="59.3071103" lon="18.4728698">
        <ele>9.2699</ele>
        <time>2011-05-21T09:36:42Z</time>
      </trkpt>
      <trkpt lat="59.3070854" lon="18.472942">
        <ele>10.2312</ele>
        <time>2011-05-21T09:36:45Z</time>
      </trkpt>
      <trkpt lat="59.3069963" lon="18.4730978">
        <ele>10.7118</ele>
        <time>2011-05-21T09:36:51Z</time>
      </trkpt>
      <trkpt lat="59.3069847" lon="18.4731248">
        <ele>10.7118</ele>
        <time>2011-05-21T09:36:52Z</time>
      </trkpt>
      <trkpt lat="59.3069554" lon="18.4731879">
        <ele>12.1538</ele>
        <time>2011-05-21T09:36:56Z</time>
      </trkpt>
      <trkpt lat="59.3068961" lon="18.4732896">
        <ele>12.1538</ele>
        <time>2011-05-21T09:37:01Z</time>
      </trkpt>
      <trkpt lat="59.3068645" lon="18.473386">
        <ele>11.6732</ele>
        <time>2011-05-21T09:37:04Z</time>
      </trkpt>
      <trkpt lat="59.3068485" lon="18.4734043">
        <ele>11.6732</ele>
        <time>2011-05-21T09:37:05Z</time>
      </trkpt>
      <trkpt lat="59.3067735" lon="18.4735422">
        <ele>12.1538</ele>
        <time>2011-05-21T09:37:12Z</time>
      </trkpt>
      <trkpt lat="59.3067366" lon="18.4736776">
        <ele>10.7118</ele>
        <time>2011-05-21T09:37:16Z</time>
      </trkpt>
      <trkpt lat="59.3067005" lon="18.4737643">
        <ele>8.78918</ele>
        <time>2011-05-21T09:37:19Z</time>
      </trkpt>
      <trkpt lat="59.3066915" lon="18.4737925">
        <ele>8.78918</ele>
        <time>2011-05-21T09:37:20Z</time>
      </trkpt>
      <trkpt lat="59.3066591" lon="18.473847">
        <ele>7.82788</ele>
        <time>2011-05-21T09:37:23Z</time>
      </trkpt>
      <trkpt lat="59.3066481" lon="18.4738987">
        <ele>6.86646</ele>
        <time>2011-05-21T09:37:25Z</time>
      </trkpt>
      <trkpt lat="59.3065849" lon="18.4741098">
        <ele>5.42456</ele>
        <time>2011-05-21T09:37:33Z</time>
      </trkpt>
      <trkpt lat="59.306555" lon="18.474198">
        <ele>6.38586</ele>
        <time>2011-05-21T09:37:37Z</time>
      </trkpt>
      <trkpt lat="59.3065312" lon="18.4743065">
        <ele>7.34717</ele>
        <time>2011-05-21T09:37:41Z</time>
      </trkpt>
      <trkpt lat="59.3064831" lon="18.4744567">
        <ele>6.38586</ele>
        <time>2011-05-21T09:37:46Z</time>
      </trkpt>
      <trkpt lat="59.3064541" lon="18.4746058">
        <ele>3.98267</ele>
        <time>2011-05-21T09:37:51Z</time>
      </trkpt>
      <trkpt lat="59.3064483" lon="18.4746953">
        <ele>2.06006</ele>
        <time>2011-05-21T09:37:54Z</time>
      </trkpt>
      <trkpt lat="59.3064237" lon="18.4748211">
        <ele>1.09863</ele>
        <time>2011-05-21T09:37:58Z</time>
      </trkpt>
      <trkpt lat="59.3063866" lon="18.4749267">
        <ele>1.09863</ele>
        <time>2011-05-21T09:38:02Z</time>
      </trkpt>
      <trkpt lat="59.3063523" lon="18.4750745">
        <ele>1.09863</ele>
        <time>2011-05-21T09:38:07Z</time>
      </trkpt>
      <trkpt lat="59.3063439" lon="18.4751037">
        <ele>1.09863</ele>
        <time>2011-05-21T09:38:08Z</time>
      </trkpt>
      <trkpt lat="59.3062812" lon="18.4753355">
        <ele>1.09863</ele>
        <time>2011-05-21T09:38:16Z</time>
      </trkpt>
      <trkpt lat="59.3062381" lon="18.4755155">
        <ele>2.06006</ele>
        <time>2011-05-21T09:38:22Z</time>
      </trkpt>
      <trkpt lat="59.3062127" lon="18.4756432">
        <ele>2.06006</ele>
        <time>2011-05-21T09:38:26Z</time>
      </trkpt>
      <trkpt lat="59.3062025" lon="18.4757003">
        <ele>2.54065</ele>
        <time>2011-05-21T09:38:28Z</time>
      </trkpt>
      <trkpt lat="59.3061757" lon="18.4758496">
        <ele>2.54065</ele>
        <time>2011-05-21T09:38:33Z</time>
      </trkpt>
      <trkpt lat="59.3061697" lon="18.475926">
        <ele>1.57935</ele>
        <time>2011-05-21T09:38:35Z</time>
      </trkpt>
      <trkpt lat="59.3061251" lon="18.4760759">
        <ele>1.09863</ele>
        <time>2011-05-21T09:38:40Z</time>
      </trkpt>
      <trkpt lat="59.306084" lon="18.476242">
        <ele>1.57935</ele>
        <time>2011-05-21T09:38:46Z</time>
      </trkpt>
      <trkpt lat="59.3060374" lon="18.4764231">
        <ele>0</ele>
        <time>2011-05-21T09:38:52Z</time>
      </trkpt>
      <trkpt lat="59.3059939" lon="18.4765768">
        <ele>0</ele>
        <time>2011-05-21T09:38:58Z</time>
      </trkpt>
      <trkpt lat="59.305977" lon="18.476685">
        <ele>0</ele>
        <time>2011-05-21T09:39:02Z</time>
      </trkpt>
      <trkpt lat="59.3059293" lon="18.4768891">
        <ele>0.137451</ele>
        <time>2011-05-21T09:39:09Z</time>
      </trkpt>
      <trkpt lat="59.3059052" lon="18.4770425">
        <ele>0.618042</ele>
        <time>2011-05-21T09:39:14Z</time>
      </trkpt>
      <trkpt lat="59.3059054" lon="18.4771739">
        <ele>0</ele>
        <time>2011-05-21T09:39:17Z</time>
      </trkpt>
      <trkpt lat="59.3058867" lon="18.4772372">
        <ele>0</ele>
        <time>2011-05-21T09:39:20Z</time>
      </trkpt>
      <trkpt lat="59.305869" lon="18.4773923">
        <ele>0</ele>
        <time>2011-05-21T09:39:25Z</time>
      </trkpt>
      <trkpt lat="59.3058211" lon="18.4775368">
        <ele>0</ele>
        <time>2011-05-21T09:39:31Z</time>
      </trkpt>
      <trkpt lat="59.3057961" lon="18.4776526">
        <ele>0</ele>
        <time>2011-05-21T09:39:35Z</time>
      </trkpt>
      <trkpt lat="59.3057586" lon="18.4778391">
        <ele>0</ele>
        <time>2011-05-21T09:39:41Z</time>
      </trkpt>
      <trkpt lat="59.3057125" lon="18.4779692">
        <ele>0</ele>
        <time>2011-05-21T09:39:46Z</time>
      </trkpt>
      <trkpt lat="59.3057024" lon="18.4780033">
        <ele>0</ele>
        <time>2011-05-21T09:39:47Z</time>
      </trkpt>
      <trkpt lat="59.3056334" lon="18.4781919">
        <ele>0</ele>
        <time>2011-05-21T09:39:54Z</time>
      </trkpt>
      <trkpt lat="59.3055662" lon="18.4783907">
        <ele>0</ele>
        <time>2011-05-21T09:40:01Z</time>
      </trkpt>
      <trkpt lat="59.3055193" lon="18.4786062">
        <ele>0</ele>
        <time>2011-05-21T09:40:09Z</time>
      </trkpt>
      <trkpt lat="59.3055138" lon="18.4788002">
        <ele>0</ele>
        <time>2011-05-21T09:40:16Z</time>
      </trkpt>
      <trkpt lat="59.3055107" lon="18.478947">
        <ele>0</ele>
        <time>2011-05-21T09:40:21Z</time>
      </trkpt>
      <trkpt lat="59.3055013" lon="18.4790191">
        <ele>0.137451</ele>
        <time>2011-05-21T09:40:23Z</time>
      </trkpt>
      <trkpt lat="59.3054866" lon="18.4791768">
        <ele>1.09863</ele>
        <time>2011-05-21T09:40:28Z</time>
      </trkpt>
      <trkpt lat="59.3054616" lon="18.4793956">
        <ele>2.06006</ele>
        <time>2011-05-21T09:40:35Z</time>
      </trkpt>
      <trkpt lat="59.3054614" lon="18.4794631">
        <ele>1.09863</ele>
        <time>2011-05-21T09:40:37Z</time>
      </trkpt>
      <trkpt lat="59.3054463" lon="18.4795896">
        <ele>0.618042</ele>
        <time>2011-05-21T09:40:42Z</time>
      </trkpt>
      <trkpt lat="59.3054087" lon="18.47981">
        <ele>2.06006</ele>
        <time>2011-05-21T09:40:49Z</time>
      </trkpt>
      <trkpt lat="59.3053913" lon="18.4798831">
        <ele>3.50195</ele>
        <time>2011-05-21T09:40:52Z</time>
      </trkpt>
      <trkpt lat="59.305404" lon="18.4800445">
        <ele>4.46326</ele>
        <time>2011-05-21T09:40:56Z</time>
      </trkpt>
      <trkpt lat="59.3053932" lon="18.4801407">
        <ele>5.42456</ele>
        <time>2011-05-21T09:40:59Z</time>
      </trkpt>
      <trkpt lat="59.3053662" lon="18.4802258">
        <ele>6.86646</ele>
        <time>2011-05-21T09:41:03Z</time>
      </trkpt>
      <trkpt lat="59.3053656" lon="18.4802516">
        <ele>7.34717</ele>
        <time>2011-05-21T09:41:04Z</time>
      </trkpt>
      <trkpt lat="59.3053729" lon="18.4804355">
        <ele>8.78918</ele>
        <time>2011-05-21T09:41:08Z</time>
      </trkpt>
      <trkpt lat="59.3053414" lon="18.4806535">
        <ele>11.6732</ele>
        <time>2011-05-21T09:41:15Z</time>
      </trkpt>
      <trkpt lat="59.3053183" lon="18.4808508">
        <ele>11.6732</ele>
        <time>2011-05-21T09:41:21Z</time>
      </trkpt>
      <trkpt lat="59.3053077" lon="18.4810349">
        <ele>13.5958</ele>
        <time>2011-05-21T09:41:27Z</time>
      </trkpt>
      <trkpt lat="59.3053022" lon="18.4810658">
        <ele>14.0764</ele>
        <time>2011-05-21T09:41:28Z</time>
      </trkpt>
      <trkpt lat="59.3052635" lon="18.4813367">
        <ele>15.999</ele>
        <time>2011-05-21T09:41:37Z</time>
      </trkpt>
      <trkpt lat="59.3052293" lon="18.481554">
        <ele>15.0377</ele>
        <time>2011-05-21T09:41:44Z</time>
      </trkpt>
      <trkpt lat="59.3052273" lon="18.4817715">
        <ele>13.5958</ele>
        <time>2011-05-21T09:41:49Z</time>
      </trkpt>
      <trkpt lat="59.3052123" lon="18.4819002">
        <ele>12.6344</ele>
        <time>2011-05-21T09:41:52Z</time>
      </trkpt>
      <trkpt lat="59.3052055" lon="18.4821023">
        <ele>11.1925</ele>
        <time>2011-05-21T09:41:56Z</time>
      </trkpt>
      <trkpt lat="59.305147" lon="18.4822612">
        <ele>9.75061</ele>
        <time>2011-05-21T09:42:02Z</time>
      </trkpt>
      <trkpt lat="59.3050894" lon="18.4823952">
        <ele>9.75061</ele>
        <time>2011-05-21T09:42:07Z</time>
      </trkpt>
      <trkpt lat="59.3050502" lon="18.4825482">
        <ele>6.86646</ele>
        <time>2011-05-21T09:42:12Z</time>
      </trkpt>
      <trkpt lat="59.3050041" lon="18.4826437">
        <ele>5.42456</ele>
        <time>2011-05-21T09:42:16Z</time>
      </trkpt>
      <trkpt lat="59.3049418" lon="18.4828364">
        <ele>3.98267</ele>
        <time>2011-05-21T09:42:23Z</time>
      </trkpt>
      <trkpt lat="59.3049194" lon="18.4829727">
        <ele>3.02124</ele>
        <time>2011-05-21T09:42:28Z</time>
      </trkpt>
      <trkpt lat="59.3049315" lon="18.4831377">
        <ele>3.98267</ele>
        <time>2011-05-21T09:42:34Z</time>
      </trkpt>
      <trkpt lat="59.3049357" lon="18.4832545">
        <ele>5.42456</ele>
        <time>2011-05-21T09:42:38Z</time>
      </trkpt>
      <trkpt lat="59.3049511" lon="18.4833602">
        <ele>6.38586</ele>
        <time>2011-05-21T09:42:42Z</time>
      </trkpt>
      <trkpt lat="59.3049627" lon="18.4834197">
        <ele>7.34717</ele>
        <time>2011-05-21T09:42:44Z</time>
      </trkpt>
      <trkpt lat="59.304964" lon="18.4835454">
        <ele>9.75061</ele>
        <time>2011-05-21T09:42:48Z</time>
      </trkpt>
      <trkpt lat="59.3049631" lon="18.4836268">
        <ele>9.75061</ele>
        <time>2011-05-21T09:42:51Z</time>
      </trkpt>
      <trkpt lat="59.3049915" lon="18.4837347">
        <ele>10.7118</ele>
        <time>2011-05-21T09:42:55Z</time>
      </trkpt>
      <trkpt lat="59.3050119" lon="18.4839351">
        <ele>10.2312</ele>
        <time>2011-05-21T09:43:02Z</time>
      </trkpt>
      <trkpt lat="59.305017" lon="18.4839945">
        <ele>10.7118</ele>
        <time>2011-05-21T09:43:04Z</time>
      </trkpt>
      <trkpt lat="59.3049842" lon="18.4842079">
        <ele>11.6732</ele>
        <time>2011-05-21T09:43:10Z</time>
      </trkpt>
      <trkpt lat="59.3049786" lon="18.4842382">
        <ele>11.6732</ele>
        <time>2011-05-21T09:43:11Z</time>
      </trkpt>
      <trkpt lat="59.3049761" lon="18.4843515">
        <ele>11.6732</ele>
        <time>2011-05-21T09:43:14Z</time>
      </trkpt>
      <trkpt lat="59.3049724" lon="18.4845465">
        <ele>11.1925</ele>
        <time>2011-05-21T09:43:20Z</time>
      </trkpt>
      <trkpt lat="59.304961" lon="18.4847339">
        <ele>11.1925</ele>
        <time>2011-05-21T09:43:26Z</time>
      </trkpt>
      <trkpt lat="59.3049497" lon="18.4847986">
        <ele>10.7118</ele>
        <time>2011-05-21T09:43:28Z</time>
      </trkpt>
      <trkpt lat="59.3049332" lon="18.4848597">
        <ele>10.2312</ele>
        <time>2011-05-21T09:43:30Z</time>
      </trkpt>
      <trkpt lat="59.3049059" lon="18.484937">
        <ele>9.75061</ele>
        <time>2011-05-21T09:43:33Z</time>
      </trkpt>
      <trkpt lat="59.3049143" lon="18.4850463">
        <ele>9.2699</ele>
        <time>2011-05-21T09:43:37Z</time>
      </trkpt>
      <trkpt lat="59.3049557" lon="18.485287">
        <ele>8.30859</ele>
        <time>2011-05-21T09:43:43Z</time>
      </trkpt>
      <trkpt lat="59.3049508" lon="18.4854011">
        <ele>9.2699</ele>
        <time>2011-05-21T09:43:47Z</time>
      </trkpt>
      <trkpt lat="59.3049492" lon="18.4855585">
        <ele>10.7118</ele>
        <time>2011-05-21T09:43:52Z</time>
      </trkpt>
      <trkpt lat="59.3049212" lon="18.4856623">
        <ele>12.6344</ele>
        <time>2011-05-21T09:43:56Z</time>
      </trkpt>
      <trkpt lat="59.3049179" lon="18.485727">
        <ele>13.1151</ele>
        <time>2011-05-21T09:43:58Z</time>
      </trkpt>
      <trkpt lat="59.304935" lon="18.4858952">
        <ele>14.557</ele>
        <time>2011-05-21T09:44:03Z</time>
      </trkpt>
      <trkpt lat="59.3049453" lon="18.4860273">
        <ele>14.557</ele>
        <time>2011-05-21T09:44:07Z</time>
      </trkpt>
      <trkpt lat="59.3049443" lon="18.4861237">
        <ele>15.5184</ele>
        <time>2011-05-21T09:44:10Z</time>
      </trkpt>
      <trkpt lat="59.304951" lon="18.4863174">
        <ele>15.999</ele>
        <time>2011-05-21T09:44:16Z</time>
      </trkpt>
      <trkpt lat="59.3049696" lon="18.4864774">
        <ele>15.0377</ele>
        <time>2011-05-21T09:44:21Z</time>
      </trkpt>
      <trkpt lat="59.3049687" lon="18.4865102">
        <ele>15.0377</ele>
        <time>2011-05-21T09:44:22Z</time>
      </trkpt>
      <trkpt lat="59.3050168" lon="18.4867208">
        <ele>12.1538</ele>
        <time>2011-05-21T09:44:28Z</time>
      </trkpt>
      <trkpt lat="59.3050222" lon="18.4867566">
        <ele>12.1538</ele>
        <time>2011-05-21T09:44:29Z</time>
      </trkpt>
      <trkpt lat="59.3050547" lon="18.4869451">
        <ele>10.7118</ele>
        <time>2011-05-21T09:44:34Z</time>
      </trkpt>
      <trkpt lat="59.3050605" lon="18.4870712">
        <ele>10.2312</ele>
        <time>2011-05-21T09:44:38Z</time>
      </trkpt>
      <trkpt lat="59.3050805" lon="18.4872244">
        <ele>9.75061</ele>
        <time>2011-05-21T09:44:43Z</time>
      </trkpt>
      <trkpt lat="59.3050631" lon="18.4873098">
        <ele>11.1925</ele>
        <time>2011-05-21T09:44:46Z</time>
      </trkpt>
      <trkpt lat="59.3050515" lon="18.4874232">
        <ele>12.1538</ele>
        <time>2011-05-21T09:44:52Z</time>
      </trkpt>
      <trkpt lat="59.3050603" lon="18.4874995">
        <ele>12.1538</ele>
        <time>2011-05-21T09:44:55Z</time>
      </trkpt>
      <trkpt lat="59.3050295" lon="18.4876544">
        <ele>10.2312</ele>
        <time>2011-05-21T09:45:01Z</time>
      </trkpt>
      <trkpt lat="59.3050201" lon="18.4877524">
        <ele>9.2699</ele>
        <time>2011-05-21T09:45:04Z</time>
      </trkpt>
      <trkpt lat="59.3050171" lon="18.4878077">
        <ele>9.2699</ele>
        <time>2011-05-21T09:45:06Z</time>
      </trkpt>
      <trkpt lat="59.3049788" lon="18.487926">
        <ele>10.2312</ele>
        <time>2011-05-21T09:45:10Z</time>
      </trkpt>
      <trkpt lat="59.3049797" lon="18.4881087">
        <ele>11.1925</ele>
        <time>2011-05-21T09:45:15Z</time>
      </trkpt>
      <trkpt lat="59.3049507" lon="18.4882456">
        <ele>12.6344</ele>
        <time>2011-05-21T09:45:20Z</time>
      </trkpt>
      <trkpt lat="59.3049005" lon="18.488411">
        <ele>19.8444</ele>
        <time>2011-05-21T09:45:25Z</time>
      </trkpt>
      <trkpt lat="59.304859" lon="18.4885998">
        <ele>24.1703</ele>
        <time>2011-05-21T09:45:30Z</time>
      </trkpt>
      <trkpt lat="59.3048593" lon="18.4886672">
        <ele>24.651</ele>
        <time>2011-05-21T09:45:32Z</time>
      </trkpt>
      <trkpt lat="59.3048709" lon="18.488878">
        <ele>25.6123</ele>
        <time>2011-05-21T09:45:38Z</time>
      </trkpt>
      <trkpt lat="59.3048749" lon="18.4890256">
        <ele>26.5736</ele>
        <time>2011-05-21T09:45:42Z</time>
      </trkpt>
      <trkpt lat="59.3048813" lon="18.4891116">
        <ele>25.1317</ele>
        <time>2011-05-21T09:45:45Z</time>
      </trkpt>
      <trkpt lat="59.3048786" lon="18.4891925">
        <ele>25.1317</ele>
        <time>2011-05-21T09:45:48Z</time>
      </trkpt>
      <trkpt lat="59.3048534" lon="18.4893358">
        <ele>26.5736</ele>
        <time>2011-05-21T09:45:53Z</time>
      </trkpt>
      <trkpt lat="59.3048418" lon="18.4895794">
        <ele>27.0543</ele>
        <time>2011-05-21T09:46:01Z</time>
      </trkpt>
      <trkpt lat="59.3048361" lon="18.4897548">
        <ele>27.0543</ele>
        <time>2011-05-21T09:46:06Z</time>
      </trkpt>
      <trkpt lat="59.3048458" lon="18.4898722">
        <ele>27.5349</ele>
        <time>2011-05-21T09:46:09Z</time>
      </trkpt>
      <trkpt lat="59.3048075" lon="18.4900363">
        <ele>26.5736</ele>
        <time>2011-05-21T09:46:14Z</time>
      </trkpt>
      <trkpt lat="59.3047989" lon="18.4901014">
        <ele>25.6123</ele>
        <time>2011-05-21T09:46:16Z</time>
      </trkpt>
      <trkpt lat="59.3047942" lon="18.4902445">
        <ele>23.6896</ele>
        <time>2011-05-21T09:46:21Z</time>
      </trkpt>
      <trkpt lat="59.3047678" lon="18.4903847">
        <ele>24.651</ele>
        <time>2011-05-21T09:46:26Z</time>
      </trkpt>
      <trkpt lat="59.3047222" lon="18.490595">
        <ele>23.6896</ele>
        <time>2011-05-21T09:46:33Z</time>
      </trkpt>
      <trkpt lat="59.3047103" lon="18.4906993">
        <ele>23.209</ele>
        <time>2011-05-21T09:46:36Z</time>
      </trkpt>
      <trkpt lat="59.3047082" lon="18.4908167">
        <ele>20.8057</ele>
        <time>2011-05-21T09:46:40Z</time>
      </trkpt>
      <trkpt lat="59.304716" lon="18.4909406">
        <ele>20.8057</ele>
        <time>2011-05-21T09:46:44Z</time>
      </trkpt>
      <trkpt lat="59.3046787" lon="18.4911933">
        <ele>18.8831</ele>
        <time>2011-05-21T09:46:52Z</time>
      </trkpt>
      <trkpt lat="59.3046907" lon="18.4913997">
        <ele>17.9218</ele>
        <time>2011-05-21T09:46:59Z</time>
      </trkpt>
      <trkpt lat="59.3046912" lon="18.4914513">
        <ele>18.4023</ele>
        <time>2011-05-21T09:47:01Z</time>
      </trkpt>
      <trkpt lat="59.3046943" lon="18.4915085">
        <ele>18.8831</ele>
        <time>2011-05-21T09:47:03Z</time>
      </trkpt>
      <trkpt lat="59.304669" lon="18.4916873">
        <ele>20.325</ele>
        <time>2011-05-21T09:47:09Z</time>
      </trkpt>
      <trkpt lat="59.3046565" lon="18.4917602">
        <ele>21.2864</ele>
        <time>2011-05-21T09:47:11Z</time>
      </trkpt>
      <trkpt lat="59.3045856" lon="18.492088">
        <ele>19.8444</ele>
        <time>2011-05-21T09:47:21Z</time>
      </trkpt>
      <trkpt lat="59.3045756" lon="18.4921485">
        <ele>18.8831</ele>
        <time>2011-05-21T09:47:23Z</time>
      </trkpt>
      <trkpt lat="59.3045446" lon="18.4922885">
        <ele>16.9604</ele>
        <time>2011-05-21T09:47:28Z</time>
      </trkpt>
      <trkpt lat="59.3045271" lon="18.4924417">
        <ele>15.5184</ele>
        <time>2011-05-21T09:47:33Z</time>
      </trkpt>
      <trkpt lat="59.3045198" lon="18.4924736">
        <ele>15.5184</ele>
        <time>2011-05-21T09:47:34Z</time>
      </trkpt>
      <trkpt lat="59.3044993" lon="18.4926163">
        <ele>14.557</ele>
        <time>2011-05-21T09:47:39Z</time>
      </trkpt>
      <trkpt lat="59.3044777" lon="18.4927966">
        <ele>13.1151</ele>
        <time>2011-05-21T09:47:45Z</time>
      </trkpt>
      <trkpt lat="59.3044431" lon="18.4929546">
        <ele>12.1538</ele>
        <time>2011-05-21T09:47:50Z</time>
      </trkpt>
      <trkpt lat="59.3044261" lon="18.4930082">
        <ele>11.6732</ele>
        <time>2011-05-21T09:47:52Z</time>
      </trkpt>
      <trkpt lat="59.3044052" lon="18.4931266">
        <ele>10.7118</ele>
        <time>2011-05-21T09:47:56Z</time>
      </trkpt>
      <trkpt lat="59.3043168" lon="18.4933702">
        <ele>8.78918</ele>
        <time>2011-05-21T09:48:04Z</time>
      </trkpt>
      <trkpt lat="59.3042738" lon="18.4935256">
        <ele>7.82788</ele>
        <time>2011-05-21T09:48:09Z</time>
      </trkpt>
      <trkpt lat="59.304224" lon="18.4936942">
        <ele>5.42456</ele>
        <time>2011-05-21T09:48:15Z</time>
      </trkpt>
      <trkpt lat="59.3042063" lon="18.493737">
        <ele>4.94385</ele>
        <time>2011-05-21T09:48:17Z</time>
      </trkpt>
      <trkpt lat="59.3041414" lon="18.4938871">
        <ele>6.86646</ele>
        <time>2011-05-21T09:48:23Z</time>
      </trkpt>
      <trkpt lat="59.3041073" lon="18.4940005">
        <ele>7.34717</ele>
        <time>2011-05-21T09:48:27Z</time>
      </trkpt>
      <trkpt lat="59.304083" lon="18.4941687">
        <ele>5.90527</ele>
        <time>2011-05-21T09:48:34Z</time>
      </trkpt>
      <trkpt lat="59.3040328" lon="18.494315">
        <ele>5.42456</ele>
        <time>2011-05-21T09:48:39Z</time>
      </trkpt>
      <trkpt lat="59.3040172" lon="18.4943678">
        <ele>4.94385</ele>
        <time>2011-05-21T09:48:41Z</time>
      </trkpt>
      <trkpt lat="59.3039835" lon="18.4944681">
        <ele>4.46326</ele>
        <time>2011-05-21T09:48:45Z</time>
      </trkpt>
      <trkpt lat="59.3039179" lon="18.4946319">
        <ele>4.46326</ele>
        <time>2011-05-21T09:48:51Z</time>
      </trkpt>
      <trkpt lat="59.3038701" lon="18.4948273">
        <ele>3.98267</ele>
        <time>2011-05-21T09:48:58Z</time>
      </trkpt>
      <trkpt lat="59.3038163" lon="18.4949844">
        <ele>1.57935</ele>
        <time>2011-05-21T09:49:04Z</time>
      </trkpt>
      <trkpt lat="59.3038031" lon="18.4950383">
        <ele>1.09863</ele>
        <time>2011-05-21T09:49:06Z</time>
      </trkpt>
      <trkpt lat="59.3037661" lon="18.495175">
        <ele>0.137451</ele>
        <time>2011-05-21T09:49:11Z</time>
      </trkpt>
      <trkpt lat="59.3037664" lon="18.4952638">
        <ele>0</ele>
        <time>2011-05-21T09:49:14Z</time>
      </trkpt>
      <trkpt lat="59.3037411" lon="18.4954198">
        <ele>0</ele>
        <time>2011-05-21T09:49:20Z</time>
      </trkpt>
      <trkpt lat="59.3037221" lon="18.4955323">
        <ele>0</ele>
        <time>2011-05-21T09:49:24Z</time>
      </trkpt>
      <trkpt lat="59.3037028" lon="18.4957182">
        <ele>1.57935</ele>
        <time>2011-05-21T09:49:30Z</time>
      </trkpt>
      <trkpt lat="59.3036903" lon="18.4958562">
        <ele>1.09863</ele>
        <time>2011-05-21T09:49:35Z</time>
      </trkpt>
      <trkpt lat="59.3036866" lon="18.4959136">
        <ele>1.57935</ele>
        <time>2011-05-21T09:49:37Z</time>
      </trkpt>
      <trkpt lat="59.3036886" lon="18.496132">
        <ele>3.02124</ele>
        <time>2011-05-21T09:49:44Z</time>
      </trkpt>
      <trkpt lat="59.3036717" lon="18.4963161">
        <ele>6.38586</ele>
        <time>2011-05-21T09:49:50Z</time>
      </trkpt>
      <trkpt lat="59.3036674" lon="18.4965056">
        <ele>8.78918</ele>
        <time>2011-05-21T09:49:55Z</time>
      </trkpt>
      <trkpt lat="59.3036378" lon="18.4966217">
        <ele>8.78918</ele>
        <time>2011-05-21T09:49:59Z</time>
      </trkpt>
      <trkpt lat="59.3036208" lon="18.496807">
        <ele>11.1925</ele>
        <time>2011-05-21T09:50:05Z</time>
      </trkpt>
      <trkpt lat="59.3035866" lon="18.496929">
        <ele>13.1151</ele>
        <time>2011-05-21T09:50:09Z</time>
      </trkpt>
      <trkpt lat="59.3035266" lon="18.4971335">
        <ele>15.999</ele>
        <time>2011-05-21T09:50:16Z</time>
      </trkpt>
      <trkpt lat="59.3035168" lon="18.4971624">
        <ele>16.4797</ele>
        <time>2011-05-21T09:50:17Z</time>
      </trkpt>
      <trkpt lat="59.3034727" lon="18.4972521">
        <ele>17.4412</ele>
        <time>2011-05-21T09:50:20Z</time>
      </trkpt>
      <trkpt lat="59.3034376" lon="18.4974168">
        <ele>17.4412</ele>
        <time>2011-05-21T09:50:26Z</time>
      </trkpt>
      <trkpt lat="59.3034289" lon="18.4975194">
        <ele>17.9218</ele>
        <time>2011-05-21T09:50:30Z</time>
      </trkpt>
      <trkpt lat="59.303421" lon="18.4976492">
        <ele>20.8057</ele>
        <time>2011-05-21T09:50:34Z</time>
      </trkpt>
      <trkpt lat="59.303422" lon="18.497796">
        <ele>23.6896</ele>
        <time>2011-05-21T09:50:39Z</time>
      </trkpt>
      <trkpt lat="59.3034148" lon="18.4978245">
        <ele>23.6896</ele>
        <time>2011-05-21T09:50:40Z</time>
      </trkpt>
      <trkpt lat="59.3033991" lon="18.497908">
        <ele>24.1703</ele>
        <time>2011-05-21T09:50:43Z</time>
      </trkpt>
      <trkpt lat="59.3033598" lon="18.498053">
        <ele>26.0929</ele>
        <time>2011-05-21T09:50:48Z</time>
      </trkpt>
      <trkpt lat="59.3033697" lon="18.4981823">
        <ele>28.0155</ele>
        <time>2011-05-21T09:50:52Z</time>
      </trkpt>
      <trkpt lat="59.3033388" lon="18.4983458">
        <ele>28.4962</ele>
        <time>2011-05-21T09:50:57Z</time>
      </trkpt>
      <trkpt lat="59.3032972" lon="18.4985056">
        <ele>24.1703</ele>
        <time>2011-05-21T09:51:02Z</time>
      </trkpt>
      <trkpt lat="59.3032913" lon="18.4985399">
        <ele>23.209</ele>
        <time>2011-05-21T09:51:03Z</time>
      </trkpt>
      <trkpt lat="59.3032499" lon="18.4987454">
        <ele>18.8831</ele>
        <time>2011-05-21T09:51:09Z</time>
      </trkpt>
      <trkpt lat="59.3032403" lon="18.4988378">
        <ele>17.4412</ele>
        <time>2011-05-21T09:51:12Z</time>
      </trkpt>
      <trkpt lat="59.3032278" lon="18.4990072">
        <ele>15.999</ele>
        <time>2011-05-21T09:51:18Z</time>
      </trkpt>
      <trkpt lat="59.3032385" lon="18.4991242">
        <ele>15.5184</ele>
        <time>2011-05-21T09:51:22Z</time>
      </trkpt>
      <trkpt lat="59.3031935" lon="18.4993248">
        <ele>14.557</ele>
        <time>2011-05-21T09:51:28Z</time>
      </trkpt>
      <trkpt lat="59.3031858" lon="18.4993629">
        <ele>14.0764</ele>
        <time>2011-05-21T09:51:29Z</time>
      </trkpt>
      <trkpt lat="59.3031576" lon="18.4994977">
        <ele>12.1538</ele>
        <time>2011-05-21T09:51:33Z</time>
      </trkpt>
      <trkpt lat="59.3031167" lon="18.4996855">
        <ele>12.1538</ele>
        <time>2011-05-21T09:51:39Z</time>
      </trkpt>
      <trkpt lat="59.3031122" lon="18.4997452">
        <ele>12.6344</ele>
        <time>2011-05-21T09:51:41Z</time>
      </trkpt>
      <trkpt lat="59.3031071" lon="18.4997988">
        <ele>13.1151</ele>
        <time>2011-05-21T09:51:43Z</time>
      </trkpt>
      <trkpt lat="59.3030616" lon="18.4999114">
        <ele>12.1538</ele>
        <time>2011-05-21T09:51:47Z</time>
      </trkpt>
      <trkpt lat="59.3030335" lon="18.5001398">
        <ele>9.75061</ele>
        <time>2011-05-21T09:51:55Z</time>
      </trkpt>
      <trkpt lat="59.3030131" lon="18.5003032">
        <ele>9.2699</ele>
        <time>2011-05-21T09:52:00Z</time>
      </trkpt>
      <trkpt lat="59.303014" lon="18.5003406">
        <ele>9.2699</ele>
        <time>2011-05-21T09:52:01Z</time>
      </trkpt>
      <trkpt lat="59.3029925" lon="18.500471">
        <ele>10.2312</ele>
        <time>2011-05-21T09:52:05Z</time>
      </trkpt>
      <trkpt lat="59.3029561" lon="18.5006953">
        <ele>12.1538</ele>
        <time>2011-05-21T09:52:12Z</time>
      </trkpt>
      <trkpt lat="59.3029413" lon="18.5007859">
        <ele>13.1151</ele>
        <time>2011-05-21T09:52:15Z</time>
      </trkpt>
      <trkpt lat="59.3029283" lon="18.500935">
        <ele>13.5958</ele>
        <time>2011-05-21T09:52:20Z</time>
      </trkpt>
      <trkpt lat="59.3028849" lon="18.5010713">
        <ele>14.0764</ele>
        <time>2011-05-21T09:52:24Z</time>
      </trkpt>
      <trkpt lat="59.3028636" lon="18.5011924">
        <ele>13.1151</ele>
        <time>2011-05-21T09:52:28Z</time>
      </trkpt>
      <trkpt lat="59.3028568" lon="18.5012188">
        <ele>12.6344</ele>
        <time>2011-05-21T09:52:29Z</time>
      </trkpt>
      <trkpt lat="59.3028313" lon="18.501425">
        <ele>12.1538</ele>
        <time>2011-05-21T09:52:36Z</time>
      </trkpt>
      <trkpt lat="59.3028164" lon="18.5015462">
        <ele>13.1151</ele>
        <time>2011-05-21T09:52:40Z</time>
      </trkpt>
      <trkpt lat="59.3028049" lon="18.5017029">
        <ele>13.1151</ele>
        <time>2011-05-21T09:52:45Z</time>
      </trkpt>
      <trkpt lat="59.3027811" lon="18.5018586">
        <ele>14.557</ele>
        <time>2011-05-21T09:52:50Z</time>
      </trkpt>
      <trkpt lat="59.3027315" lon="18.5020617">
        <ele>15.0377</ele>
        <time>2011-05-21T09:52:57Z</time>
      </trkpt>
      <trkpt lat="59.3026441" lon="18.5020964">
        <ele>15.5184</ele>
        <time>2011-05-21T09:53:02Z</time>
      </trkpt>
      <trkpt lat="59.3026096" lon="18.502079">
        <ele>15.999</ele>
        <time>2011-05-21T09:53:04Z</time>
      </trkpt>
      <trkpt lat="59.302514" lon="18.5019562">
        <ele>16.4797</ele>
        <time>2011-05-21T09:53:10Z</time>
      </trkpt>
      <trkpt lat="59.3024798" lon="18.5018469">
        <ele>15.5184</ele>
        <time>2011-05-21T09:53:14Z</time>
      </trkpt>
      <trkpt lat="59.302448" lon="18.5016626">
        <ele>14.557</ele>
        <time>2011-05-21T09:53:20Z</time>
      </trkpt>
      <trkpt lat="59.302397" lon="18.5014506">
        <ele>16.9604</ele>
        <time>2011-05-21T09:53:27Z</time>
      </trkpt>
      <trkpt lat="59.3023333" lon="18.5012253">
        <ele>17.9218</ele>
        <time>2011-05-21T09:53:34Z</time>
      </trkpt>
      <trkpt lat="59.302261" lon="18.5010808">
        <ele>21.2864</ele>
        <time>2011-05-21T09:53:39Z</time>
      </trkpt>
      <trkpt lat="59.3022124" lon="18.5009279">
        <ele>23.209</ele>
        <time>2011-05-21T09:53:44Z</time>
      </trkpt>
      <trkpt lat="59.3021582" lon="18.5007384">
        <ele>24.1703</ele>
        <time>2011-05-21T09:53:51Z</time>
      </trkpt>
      <trkpt lat="59.3021069" lon="18.500553">
        <ele>23.6896</ele>
        <time>2011-05-21T09:53:58Z</time>
      </trkpt>
      <trkpt lat="59.3020429" lon="18.5003446">
        <ele>23.209</ele>
        <time>2011-05-21T09:54:06Z</time>
      </trkpt>
      <trkpt lat="59.3019943" lon="18.5002089">
        <ele>24.1703</ele>
        <time>2011-05-21T09:54:11Z</time>
      </trkpt>
      <trkpt lat="59.3019621" lon="18.5000881">
        <ele>25.1317</ele>
        <time>2011-05-21T09:54:15Z</time>
      </trkpt>
      <trkpt lat="59.3019265" lon="18.4998796">
        <ele>27.5349</ele>
        <time>2011-05-21T09:54:22Z</time>
      </trkpt>
      <trkpt lat="59.3019121" lon="18.4998205">
        <ele>27.5349</ele>
        <time>2011-05-21T09:54:24Z</time>
      </trkpt>
      <trkpt lat="59.3019054" lon="18.4996662">
        <ele>28.9769</ele>
        <time>2011-05-21T09:54:29Z</time>
      </trkpt>
      <trkpt lat="59.3018493" lon="18.4995293">
        <ele>29.9381</ele>
        <time>2011-05-21T09:54:34Z</time>
      </trkpt>
      <trkpt lat="59.3018144" lon="18.4994494">
        <ele>28.0155</ele>
        <time>2011-05-21T09:54:37Z</time>
      </trkpt>
      <trkpt lat="59.3018005" lon="18.4993665">
        <ele>27.0543</ele>
        <time>2011-05-21T09:54:40Z</time>
      </trkpt>
      <trkpt lat="59.3017711" lon="18.4991914">
        <ele>28.0155</ele>
        <time>2011-05-21T09:54:46Z</time>
      </trkpt>
      <trkpt lat="59.301757" lon="18.4990356">
        <ele>27.5349</ele>
        <time>2011-05-21T09:54:51Z</time>
      </trkpt>
      <trkpt lat="59.3017582" lon="18.4990015">
        <ele>27.5349</ele>
        <time>2011-05-21T09:54:52Z</time>
      </trkpt>
      <trkpt lat="59.3017678" lon="18.4988591">
        <ele>26.5736</ele>
        <time>2011-05-21T09:54:57Z</time>
      </trkpt>
      <trkpt lat="59.3017586" lon="18.4987927">
        <ele>26.0929</ele>
        <time>2011-05-21T09:54:59Z</time>
      </trkpt>
      <trkpt lat="59.3017578" lon="18.4985773">
        <ele>23.6896</ele>
        <time>2011-05-21T09:55:06Z</time>
      </trkpt>
      <trkpt lat="59.3017024" lon="18.4983818">
        <ele>22.2476</ele>
        <time>2011-05-21T09:55:13Z</time>
      </trkpt>
      <trkpt lat="59.3016888" lon="18.498355">
        <ele>21.767</ele>
        <time>2011-05-21T09:55:14Z</time>
      </trkpt>
      <trkpt lat="59.3016603" lon="18.4981913">
        <ele>20.325</ele>
        <time>2011-05-21T09:55:20Z</time>
      </trkpt>
      <trkpt lat="59.3016002" lon="18.4980453">
        <ele>18.4023</ele>
        <time>2011-05-21T09:55:25Z</time>
      </trkpt>
      <trkpt lat="59.3015725" lon="18.4979359">
        <ele>17.4412</ele>
        <time>2011-05-21T09:55:29Z</time>
      </trkpt>
      <trkpt lat="59.3014812" lon="18.4977946">
        <ele>15.5184</ele>
        <time>2011-05-21T09:55:35Z</time>
      </trkpt>
      <trkpt lat="59.3013874" lon="18.4976582">
        <ele>13.1151</ele>
        <time>2011-05-21T09:55:41Z</time>
      </trkpt>
      <trkpt lat="59.301371" lon="18.4976226">
        <ele>14.557</ele>
        <time>2011-05-21T09:55:43Z</time>
      </trkpt>
      <trkpt lat="59.3013189" lon="18.4976499">
        <ele>17.9218</ele>
        <time>2011-05-21T09:55:49Z</time>
      </trkpt>
      <trkpt lat="59.3012821" lon="18.4977095">
        <ele>20.8057</ele>
        <time>2011-05-21T09:55:53Z</time>
      </trkpt>
      <trkpt lat="59.3012707" lon="18.4977282">
        <ele>20.8057</ele>
        <time>2011-05-21T09:55:54Z</time>
      </trkpt>
      <trkpt lat="59.3012053" lon="18.4978359">
        <ele>23.6896</ele>
        <time>2011-05-21T09:56:01Z</time>
      </trkpt>
      <trkpt lat="59.3011327" lon="18.4979394">
        <ele>27.0543</ele>
        <time>2011-05-21T09:56:07Z</time>
      </trkpt>
      <trkpt lat="59.301076" lon="18.4980691">
        <ele>27.0543</ele>
        <time>2011-05-21T09:56:13Z</time>
      </trkpt>
      <trkpt lat="59.301035" lon="18.4981378">
        <ele>26.5736</ele>
        <time>2011-05-21T09:56:16Z</time>
      </trkpt>
      <trkpt lat="59.3009946" lon="18.4983389">
        <ele>26.5736</ele>
        <time>2011-05-21T09:56:23Z</time>
      </trkpt>
      <trkpt lat="59.3009707" lon="18.4984983">
        <ele>27.0543</ele>
        <time>2011-05-21T09:56:29Z</time>
      </trkpt>
      <trkpt lat="59.3009744" lon="18.4986307">
        <ele>29.4575</ele>
        <time>2011-05-21T09:56:33Z</time>
      </trkpt>
      <trkpt lat="59.3009528" lon="18.4987145">
        <ele>30.8995</ele>
        <time>2011-05-21T09:56:36Z</time>
      </trkpt>
      <trkpt lat="59.3009215" lon="18.4988809">
        <ele>32.3416</ele>
        <time>2011-05-21T09:56:42Z</time>
      </trkpt>
      <trkpt lat="59.3008978" lon="18.4990242">
        <ele>33.3029</ele>
        <time>2011-05-21T09:56:47Z</time>
      </trkpt>
      <trkpt lat="59.3008867" lon="18.4991127">
        <ele>33.3029</ele>
        <time>2011-05-21T09:56:50Z</time>
      </trkpt>
      <trkpt lat="59.30086" lon="18.4992428">
        <ele>35.2255</ele>
        <time>2011-05-21T09:56:55Z</time>
      </trkpt>
      <trkpt lat="59.3008475" lon="18.4993733">
        <ele>37.1481</ele>
        <time>2011-05-21T09:56:59Z</time>
      </trkpt>
      <trkpt lat="59.3008458" lon="18.4995654">
        <ele>37.6287</ele>
        <time>2011-05-21T09:57:04Z</time>
      </trkpt>
      <trkpt lat="59.3008277" lon="18.4996811">
        <ele>37.6287</ele>
        <time>2011-05-21T09:57:07Z</time>
      </trkpt>
      <trkpt lat="59.3007815" lon="18.4998618">
        <ele>38.5901</ele>
        <time>2011-05-21T09:57:13Z</time>
      </trkpt>
      <trkpt lat="59.3007663" lon="18.500009">
        <ele>38.1094</ele>
        <time>2011-05-21T09:57:17Z</time>
      </trkpt>
      <trkpt lat="59.3007532" lon="18.5001426">
        <ele>37.6287</ele>
        <time>2011-05-21T09:57:22Z</time>
      </trkpt>
      <trkpt lat="59.3007517" lon="18.5001991">
        <ele>37.1481</ele>
        <time>2011-05-21T09:57:24Z</time>
      </trkpt>
      <trkpt lat="59.3007352" lon="18.500309">
        <ele>36.6675</ele>
        <time>2011-05-21T09:57:28Z</time>
      </trkpt>
      <trkpt lat="59.3007092" lon="18.5004762">
        <ele>36.1868</ele>
        <time>2011-05-21T09:57:33Z</time>
      </trkpt>
      <trkpt lat="59.3006305" lon="18.5005979">
        <ele>34.2642</ele>
        <time>2011-05-21T09:57:37Z</time>
      </trkpt>
      <trkpt lat="59.3006173" lon="18.5006198">
        <ele>34.2642</ele>
        <time>2011-05-21T09:57:38Z</time>
      </trkpt>
      <trkpt lat="59.3005871" lon="18.5007636">
        <ele>32.8223</ele>
        <time>2011-05-21T09:57:43Z</time>
      </trkpt>
      <trkpt lat="59.3005796" lon="18.5008865">
        <ele>32.8223</ele>
        <time>2011-05-21T09:57:47Z</time>
      </trkpt>
      <trkpt lat="59.3005682" lon="18.5009713">
        <ele>33.3029</ele>
        <time>2011-05-21T09:57:50Z</time>
      </trkpt>
      <trkpt lat="59.3005564" lon="18.5010314">
        <ele>33.3029</ele>
        <time>2011-05-21T09:57:52Z</time>
      </trkpt>
      <trkpt lat="59.3005624" lon="18.501214">
        <ele>31.8607</ele>
        <time>2011-05-21T09:57:58Z</time>
      </trkpt>
      <trkpt lat="59.3005191" lon="18.5013801">
        <ele>31.8607</ele>
        <time>2011-05-21T09:58:03Z</time>
      </trkpt>
      <trkpt lat="59.3004922" lon="18.5015242">
        <ele>30.8995</ele>
        <time>2011-05-21T09:58:08Z</time>
      </trkpt>
      <trkpt lat="59.3004433" lon="18.5017232">
        <ele>29.9381</ele>
        <time>2011-05-21T09:58:15Z</time>
      </trkpt>
      <trkpt lat="59.3004353" lon="18.5018379">
        <ele>29.9381</ele>
        <time>2011-05-21T09:58:19Z</time>
      </trkpt>
      <trkpt lat="59.3004236" lon="18.501892">
        <ele>29.4575</ele>
        <time>2011-05-21T09:58:21Z</time>
      </trkpt>
      <trkpt lat="59.3003946" lon="18.5020598">
        <ele>28.4962</ele>
        <time>2011-05-21T09:58:27Z</time>
      </trkpt>
      <trkpt lat="59.3003749" lon="18.502224">
        <ele>29.9381</ele>
        <time>2011-05-21T09:58:33Z</time>
      </trkpt>
      <trkpt lat="59.3003472" lon="18.5023837">
        <ele>33.3029</ele>
        <time>2011-05-21T09:58:38Z</time>
      </trkpt>
      <trkpt lat="59.3003062" lon="18.5025416">
        <ele>38.1094</ele>
        <time>2011-05-21T09:58:43Z</time>
      </trkpt>
      <trkpt lat="59.3002725" lon="18.5026928">
        <ele>39.5513</ele>
        <time>2011-05-21T09:58:48Z</time>
      </trkpt>
      <trkpt lat="59.3002497" lon="18.5027452">
        <ele>39.5513</ele>
        <time>2011-05-21T09:58:50Z</time>
      </trkpt>
      <trkpt lat="59.3001777" lon="18.5029078">
        <ele>38.5901</ele>
        <time>2011-05-21T09:58:56Z</time>
      </trkpt>
      <trkpt lat="59.3001368" lon="18.5030557">
        <ele>39.0707</ele>
        <time>2011-05-21T09:59:01Z</time>
      </trkpt>
      <trkpt lat="59.3001337" lon="18.5030912">
        <ele>39.0707</ele>
        <time>2011-05-21T09:59:02Z</time>
      </trkpt>
      <trkpt lat="59.3000783" lon="18.503188">
        <ele>38.5901</ele>
        <time>2011-05-21T09:59:06Z</time>
      </trkpt>
      <trkpt lat="59.3000281" lon="18.5033557">
        <ele>34.2642</ele>
        <time>2011-05-21T09:59:12Z</time>
      </trkpt>
      <trkpt lat="59.3000209" lon="18.5033832">
        <ele>33.7834</ele>
        <time>2011-05-21T09:59:13Z</time>
      </trkpt>
      <trkpt lat="59.2999698" lon="18.5034934">
        <ele>31.8607</ele>
        <time>2011-05-21T09:59:18Z</time>
      </trkpt>
      <trkpt lat="59.2999427" lon="18.5036147">
        <ele>30.8995</ele>
        <time>2011-05-21T09:59:22Z</time>
      </trkpt>
      <trkpt lat="59.2998825" lon="18.5037495">
        <ele>30.4188</ele>
        <time>2011-05-21T09:59:27Z</time>
      </trkpt>
      <trkpt lat="59.2998079" lon="18.5039737">
        <ele>30.8995</ele>
        <time>2011-05-21T09:59:35Z</time>
      </trkpt>
      <trkpt lat="59.2997222" lon="18.5041565">
        <ele>30.8995</ele>
        <time>2011-05-21T09:59:42Z</time>
      </trkpt>
      <trkpt lat="59.2997135" lon="18.5042458">
        <ele>30.4188</ele>
        <time>2011-05-21T09:59:45Z</time>
      </trkpt>
      <trkpt lat="59.2996773" lon="18.5044111">
        <ele>30.4188</ele>
        <time>2011-05-21T09:59:51Z</time>
      </trkpt>
      <trkpt lat="59.2996473" lon="18.5045364">
        <ele>30.4188</ele>
        <time>2011-05-21T09:59:55Z</time>
      </trkpt>
      <trkpt lat="59.2996122" lon="18.5046377">
        <ele>29.9381</ele>
        <time>2011-05-21T09:59:59Z</time>
      </trkpt>
      <trkpt lat="59.2995845" lon="18.504766">
        <ele>28.9769</ele>
        <time>2011-05-21T10:00:03Z</time>
      </trkpt>
      <trkpt lat="59.2995425" lon="18.5049071">
        <ele>28.0155</ele>
        <time>2011-05-21T10:00:08Z</time>
      </trkpt>
      <trkpt lat="59.2995127" lon="18.5049995">
        <ele>27.5349</ele>
        <time>2011-05-21T10:00:11Z</time>
      </trkpt>
      <trkpt lat="59.2994845" lon="18.5050811">
        <ele>26.5736</ele>
        <time>2011-05-21T10:00:14Z</time>
      </trkpt>
      <trkpt lat="59.2993899" lon="18.5051906">
        <ele>25.6123</ele>
        <time>2011-05-21T10:00:20Z</time>
      </trkpt>
      <trkpt lat="59.2992717" lon="18.5052871">
        <ele>26.0929</ele>
        <time>2011-05-21T10:00:27Z</time>
      </trkpt>
      <trkpt lat="59.2991931" lon="18.5053746">
        <ele>26.5736</ele>
        <time>2011-05-21T10:00:33Z</time>
      </trkpt>
      <trkpt lat="59.2991645" lon="18.5054608">
        <ele>27.0543</ele>
        <time>2011-05-21T10:00:37Z</time>
      </trkpt>
      <trkpt lat="59.2991649" lon="18.5056242">
        <ele>27.5349</ele>
        <time>2011-05-21T10:00:42Z</time>
      </trkpt>
      <trkpt lat="59.2991877" lon="18.5057905">
        <ele>27.5349</ele>
        <time>2011-05-21T10:00:48Z</time>
      </trkpt>
      <trkpt lat="59.2991944" lon="18.5058149">
        <ele>27.5349</ele>
        <time>2011-05-21T10:00:49Z</time>
      </trkpt>
      <trkpt lat="59.2992262" lon="18.5060267">
        <ele>27.5349</ele>
        <time>2011-05-21T10:00:56Z</time>
      </trkpt>
      <trkpt lat="59.2992436" lon="18.5060859">
        <ele>27.5349</ele>
        <time>2011-05-21T10:00:58Z</time>
      </trkpt>
      <trkpt lat="59.2992615" lon="18.506321">
        <ele>31.3801</ele>
        <time>2011-05-21T10:01:06Z</time>
      </trkpt>
      <trkpt lat="59.2992853" lon="18.5064914">
        <ele>32.3416</ele>
        <time>2011-05-21T10:01:11Z</time>
      </trkpt>
      <trkpt lat="59.2993013" lon="18.5067032">
        <ele>33.7834</ele>
        <time>2011-05-21T10:01:18Z</time>
      </trkpt>
      <trkpt lat="59.2993132" lon="18.5068224">
        <ele>34.7449</ele>
        <time>2011-05-21T10:01:22Z</time>
      </trkpt>
      <trkpt lat="59.2993436" lon="18.506977">
        <ele>32.3416</ele>
        <time>2011-05-21T10:01:27Z</time>
      </trkpt>
      <trkpt lat="59.2993868" lon="18.5071542">
        <ele>30.4188</ele>
        <time>2011-05-21T10:01:32Z</time>
      </trkpt>
      <trkpt lat="59.2993722" lon="18.5072755">
        <ele>29.9381</ele>
        <time>2011-05-21T10:01:36Z</time>
      </trkpt>
      <trkpt lat="59.2993572" lon="18.507364">
        <ele>29.4575</ele>
        <time>2011-05-21T10:01:39Z</time>
      </trkpt>
    </trkseg>
  </trk>
</gpx>